<?xml version="1.0" encoding="UTF-8" standalone="no" ?>
<gpx xmlns="http://www.topografix.com/GPX/1/1" xmlns:xsi="http://www.w3.org/2001/XMLSchema-instance" xsi:schemaLocation="http://www.topografix.com/GPX/1/1 http://www.topografix.com/GPX/1/1/gpx.xsd" version="1.1" creator="VisuGPX - https://www.visugpx.com">
  <metadata>
    <name>OMS CHENOVE Marche du vendredi 05 avril 2013</name>
    <desc><![CDATA[Ballade autour du Plateau]]></desc>
  </metadata>
  <trk>
    <name><![CDATA[OMS CHENOVE Marche du vendredi 05 avril 2013_1]]></name>
    <trkseg>
      <trkpt lat="47.29308" lon="5.00357">
        <ele>296.163</ele>
        <time>2013-04-05T08:06:40Z</time>
      </trkpt>
      <trkpt lat="47.29318" lon="5.00363">
        <ele>290.251</ele>
        <time>2013-04-05T08:06:51Z</time>
      </trkpt>
      <trkpt lat="47.29328" lon="5.00355">
        <ele>290.112</ele>
        <time>2013-04-05T08:07:02Z</time>
      </trkpt>
      <trkpt lat="47.29337" lon="5.0035">
        <ele>273.716</ele>
        <time>2013-04-05T08:07:13Z</time>
      </trkpt>
      <trkpt lat="47.29338" lon="5.00358">
        <ele>277.449</ele>
        <time>2013-04-05T08:07:24Z</time>
      </trkpt>
      <trkpt lat="47.29345" lon="5.00362">
        <ele>279.02</ele>
        <time>2013-04-05T08:07:35Z</time>
      </trkpt>
      <trkpt lat="47.29348" lon="5.00362">
        <ele>281.968</ele>
        <time>2013-04-05T08:07:46Z</time>
      </trkpt>
      <trkpt lat="47.29353" lon="5.00368">
        <ele>281.819</ele>
        <time>2013-04-05T08:07:57Z</time>
      </trkpt>
      <trkpt lat="47.2937" lon="5.00355">
        <ele>280.579</ele>
        <time>2013-04-05T08:08:08Z</time>
      </trkpt>
      <trkpt lat="47.29378" lon="5.0035">
        <ele>284.146</ele>
        <time>2013-04-05T08:08:19Z</time>
      </trkpt>
      <trkpt lat="47.29385" lon="5.00348">
        <ele>288.966</ele>
        <time>2013-04-05T08:08:30Z</time>
      </trkpt>
      <trkpt lat="47.29385" lon="5.00345">
        <ele>293.564</ele>
        <time>2013-04-05T08:08:41Z</time>
      </trkpt>
      <trkpt lat="47.29398" lon="5.00347">
        <ele>292.461</ele>
        <time>2013-04-05T08:08:52Z</time>
      </trkpt>
      <trkpt lat="47.2941" lon="5.00347">
        <ele>289.993</ele>
        <time>2013-04-05T08:09:03Z</time>
      </trkpt>
      <trkpt lat="47.29415" lon="5.00347">
        <ele>292.257</ele>
        <time>2013-04-05T08:09:14Z</time>
      </trkpt>
      <trkpt lat="47.29428" lon="5.0036">
        <ele>287.901</ele>
        <time>2013-04-05T08:09:25Z</time>
      </trkpt>
      <trkpt lat="47.29447" lon="5.00367">
        <ele>279.122</ele>
        <time>2013-04-05T08:09:36Z</time>
      </trkpt>
      <trkpt lat="47.29452" lon="5.00372">
        <ele>276.155</ele>
        <time>2013-04-05T08:09:47Z</time>
      </trkpt>
      <trkpt lat="47.29458" lon="5.00377">
        <ele>270.658</ele>
        <time>2013-04-05T08:09:58Z</time>
      </trkpt>
      <trkpt lat="47.29473" lon="5.00372">
        <ele>270.525</ele>
        <time>2013-04-05T08:10:09Z</time>
      </trkpt>
      <trkpt lat="47.29475" lon="5.00352">
        <ele>274.617</ele>
        <time>2013-04-05T08:10:20Z</time>
      </trkpt>
      <trkpt lat="47.2948" lon="5.00335">
        <ele>280.338</ele>
        <time>2013-04-05T08:10:31Z</time>
      </trkpt>
      <trkpt lat="47.2948" lon="5.00328">
        <ele>277.57</ele>
        <time>2013-04-05T08:10:42Z</time>
      </trkpt>
      <trkpt lat="47.29482" lon="5.00322">
        <ele>271.519</ele>
        <time>2013-04-05T08:10:53Z</time>
      </trkpt>
      <trkpt lat="47.29487" lon="5.00295">
        <ele>280.372</ele>
        <time>2013-04-05T08:11:04Z</time>
      </trkpt>
      <trkpt lat="47.29502" lon="5.00258">
        <ele>292.463</ele>
        <time>2013-04-05T08:11:15Z</time>
      </trkpt>
      <trkpt lat="47.29513" lon="5.00252">
        <ele>292.129</ele>
        <time>2013-04-05T08:11:26Z</time>
      </trkpt>
      <trkpt lat="47.29525" lon="5.00243">
        <ele>289.6</ele>
        <time>2013-04-05T08:11:37Z</time>
      </trkpt>
      <trkpt lat="47.29533" lon="5.00252">
        <ele>278.911</ele>
        <time>2013-04-05T08:11:48Z</time>
      </trkpt>
      <trkpt lat="47.29548" lon="5.00233">
        <ele>280.763</ele>
        <time>2013-04-05T08:11:59Z</time>
      </trkpt>
      <trkpt lat="47.29555" lon="5.0022">
        <ele>283.283</ele>
        <time>2013-04-05T08:12:10Z</time>
      </trkpt>
      <trkpt lat="47.2958" lon="5.00202">
        <ele>268.171</ele>
        <time>2013-04-05T08:12:21Z</time>
      </trkpt>
      <trkpt lat="47.29593" lon="5.00182">
        <ele>263.717</ele>
        <time>2013-04-05T08:12:32Z</time>
      </trkpt>
      <trkpt lat="47.29593" lon="5.00163">
        <ele>268.286</ele>
        <time>2013-04-05T08:12:43Z</time>
      </trkpt>
      <trkpt lat="47.29598" lon="5.00138">
        <ele>270.927</ele>
        <time>2013-04-05T08:12:54Z</time>
      </trkpt>
      <trkpt lat="47.29588" lon="5.0014">
        <ele>276.083</ele>
        <time>2013-04-05T08:13:05Z</time>
      </trkpt>
      <trkpt lat="47.29593" lon="5.00125">
        <ele>273.926</ele>
        <time>2013-04-05T08:13:16Z</time>
      </trkpt>
      <trkpt lat="47.29598" lon="5.00115">
        <ele>266.842</ele>
        <time>2013-04-05T08:13:27Z</time>
      </trkpt>
      <trkpt lat="47.29597" lon="5.00087">
        <ele>274.124</ele>
        <time>2013-04-05T08:13:38Z</time>
      </trkpt>
      <trkpt lat="47.29582" lon="5.00072">
        <ele>285.381</ele>
        <time>2013-04-05T08:13:49Z</time>
      </trkpt>
      <trkpt lat="47.29565" lon="5.00033">
        <ele>305.91</ele>
        <time>2013-04-05T08:14:00Z</time>
      </trkpt>
      <trkpt lat="47.29545" lon="4.99982">
        <ele>329.18</ele>
        <time>2013-04-05T08:14:11Z</time>
      </trkpt>
      <trkpt lat="47.29567" lon="4.99982">
        <ele>319.768</ele>
        <time>2013-04-05T08:14:22Z</time>
      </trkpt>
      <trkpt lat="47.29568" lon="4.99977">
        <ele>305.423</ele>
        <time>2013-04-05T08:14:33Z</time>
      </trkpt>
      <trkpt lat="47.2956" lon="4.99932">
        <ele>321.594</ele>
        <time>2013-04-05T08:14:44Z</time>
      </trkpt>
      <trkpt lat="47.2955" lon="4.99925">
        <ele>327.492</ele>
        <time>2013-04-05T08:14:55Z</time>
      </trkpt>
      <trkpt lat="47.29537" lon="4.99918">
        <ele>330.476</ele>
        <time>2013-04-05T08:15:06Z</time>
      </trkpt>
      <trkpt lat="47.2953" lon="4.99917">
        <ele>326.518</ele>
        <time>2013-04-05T08:15:17Z</time>
      </trkpt>
      <trkpt lat="47.29522" lon="4.99902">
        <ele>324.533</ele>
        <time>2013-04-05T08:15:28Z</time>
      </trkpt>
      <trkpt lat="47.29518" lon="4.99895">
        <ele>322.068</ele>
        <time>2013-04-05T08:15:39Z</time>
      </trkpt>
      <trkpt lat="47.29507" lon="4.99895">
        <ele>313.587</ele>
        <time>2013-04-05T08:15:50Z</time>
      </trkpt>
      <trkpt lat="47.29503" lon="4.99888">
        <ele>308.708</ele>
        <time>2013-04-05T08:16:01Z</time>
      </trkpt>
      <trkpt lat="47.29502" lon="4.99888">
        <ele>307.671</ele>
        <time>2013-04-05T08:16:12Z</time>
      </trkpt>
      <trkpt lat="47.29503" lon="4.99885">
        <ele>309.307</ele>
        <time>2013-04-05T08:16:23Z</time>
      </trkpt>
      <trkpt lat="47.29505" lon="4.99868">
        <ele>313.06</ele>
        <time>2013-04-05T08:16:34Z</time>
      </trkpt>
      <trkpt lat="47.29503" lon="4.99857">
        <ele>312.43</ele>
        <time>2013-04-05T08:16:45Z</time>
      </trkpt>
      <trkpt lat="47.29498" lon="4.99853">
        <ele>307.32</ele>
        <time>2013-04-05T08:16:56Z</time>
      </trkpt>
      <trkpt lat="47.295" lon="4.99853">
        <ele>307.511</ele>
        <time>2013-04-05T08:17:07Z</time>
      </trkpt>
      <trkpt lat="47.295" lon="4.9985">
        <ele>308.805</ele>
        <time>2013-04-05T08:17:18Z</time>
      </trkpt>
      <trkpt lat="47.29502" lon="4.9984">
        <ele>309.418</ele>
        <time>2013-04-05T08:17:29Z</time>
      </trkpt>
      <trkpt lat="47.29502" lon="4.9984">
        <ele>309.418</ele>
        <time>2013-04-05T08:17:40Z</time>
      </trkpt>
      <trkpt lat="47.29503" lon="4.99835">
        <ele>310.087</ele>
        <time>2013-04-05T08:17:51Z</time>
      </trkpt>
      <trkpt lat="47.29503" lon="4.99835">
        <ele>310.087</ele>
        <time>2013-04-05T08:18:02Z</time>
      </trkpt>
      <trkpt lat="47.29503" lon="4.99835">
        <ele>310.087</ele>
        <time>2013-04-05T08:18:13Z</time>
      </trkpt>
      <trkpt lat="47.29503" lon="4.99835">
        <ele>310.087</ele>
        <time>2013-04-05T08:18:24Z</time>
      </trkpt>
      <trkpt lat="47.29503" lon="4.99835">
        <ele>310.388</ele>
        <time>2013-04-05T08:18:35Z</time>
      </trkpt>
      <trkpt lat="47.29503" lon="4.99835">
        <ele>310.388</ele>
        <time>2013-04-05T08:18:46Z</time>
      </trkpt>
      <trkpt lat="47.29503" lon="4.99835">
        <ele>310.388</ele>
        <time>2013-04-05T08:18:57Z</time>
      </trkpt>
      <trkpt lat="47.29502" lon="4.99832">
        <ele>310.67</ele>
        <time>2013-04-05T08:19:08Z</time>
      </trkpt>
      <trkpt lat="47.29502" lon="4.99832">
        <ele>310.67</ele>
        <time>2013-04-05T08:19:19Z</time>
      </trkpt>
      <trkpt lat="47.29502" lon="4.99832">
        <ele>310.67</ele>
        <time>2013-04-05T08:19:30Z</time>
      </trkpt>
      <trkpt lat="47.29502" lon="4.9983">
        <ele>311.699</ele>
        <time>2013-04-05T08:19:41Z</time>
      </trkpt>
      <trkpt lat="47.29502" lon="4.9983">
        <ele>311.699</ele>
        <time>2013-04-05T08:19:52Z</time>
      </trkpt>
      <trkpt lat="47.29502" lon="4.9983">
        <ele>311.699</ele>
        <time>2013-04-05T08:20:03Z</time>
      </trkpt>
      <trkpt lat="47.29502" lon="4.9983">
        <ele>311.699</ele>
        <time>2013-04-05T08:20:14Z</time>
      </trkpt>
      <trkpt lat="47.29502" lon="4.9983">
        <ele>311.699</ele>
        <time>2013-04-05T08:20:25Z</time>
      </trkpt>
      <trkpt lat="47.29502" lon="4.9983">
        <ele>311.699</ele>
        <time>2013-04-05T08:20:36Z</time>
      </trkpt>
      <trkpt lat="47.29502" lon="4.9983">
        <ele>311.847</ele>
        <time>2013-04-05T08:20:47Z</time>
      </trkpt>
      <trkpt lat="47.29503" lon="4.9983">
        <ele>311.55</ele>
        <time>2013-04-05T08:20:58Z</time>
      </trkpt>
      <trkpt lat="47.29503" lon="4.9983">
        <ele>311.55</ele>
        <time>2013-04-05T08:21:09Z</time>
      </trkpt>
      <trkpt lat="47.29503" lon="4.9983">
        <ele>309.752</ele>
        <time>2013-04-05T08:21:20Z</time>
      </trkpt>
      <trkpt lat="47.29505" lon="4.99835">
        <ele>307.781</ele>
        <time>2013-04-05T08:21:31Z</time>
      </trkpt>
      <trkpt lat="47.29507" lon="4.99833">
        <ele>308.177</ele>
        <time>2013-04-05T08:21:42Z</time>
      </trkpt>
      <trkpt lat="47.29515" lon="4.99823">
        <ele>311.603</ele>
        <time>2013-04-05T08:21:53Z</time>
      </trkpt>
      <trkpt lat="47.2952" lon="4.99815">
        <ele>315.073</ele>
        <time>2013-04-05T08:22:04Z</time>
      </trkpt>
      <trkpt lat="47.29528" lon="4.99807">
        <ele>317.393</ele>
        <time>2013-04-05T08:22:15Z</time>
      </trkpt>
      <trkpt lat="47.29542" lon="4.99803">
        <ele>315.577</ele>
        <time>2013-04-05T08:22:26Z</time>
      </trkpt>
      <trkpt lat="47.29552" lon="4.99797">
        <ele>315.722</ele>
        <time>2013-04-05T08:22:37Z</time>
      </trkpt>
      <trkpt lat="47.29568" lon="4.99783">
        <ele>321.691</ele>
        <time>2013-04-05T08:22:48Z</time>
      </trkpt>
      <trkpt lat="47.29577" lon="4.99778">
        <ele>321.037</ele>
        <time>2013-04-05T08:22:59Z</time>
      </trkpt>
      <trkpt lat="47.29588" lon="4.99775">
        <ele>322.869</ele>
        <time>2013-04-05T08:23:10Z</time>
      </trkpt>
      <trkpt lat="47.29603" lon="4.99772">
        <ele>331.737</ele>
        <time>2013-04-05T08:23:21Z</time>
      </trkpt>
      <trkpt lat="47.2962" lon="4.99768">
        <ele>334.624</ele>
        <time>2013-04-05T08:23:32Z</time>
      </trkpt>
      <trkpt lat="47.29633" lon="4.99768">
        <ele>335.865</ele>
        <time>2013-04-05T08:23:43Z</time>
      </trkpt>
      <trkpt lat="47.29645" lon="4.99767">
        <ele>340.472</ele>
        <time>2013-04-05T08:23:54Z</time>
      </trkpt>
      <trkpt lat="47.29653" lon="4.99768">
        <ele>341.15</ele>
        <time>2013-04-05T08:24:05Z</time>
      </trkpt>
      <trkpt lat="47.2966" lon="4.99767">
        <ele>341.659</ele>
        <time>2013-04-05T08:24:16Z</time>
      </trkpt>
      <trkpt lat="47.29675" lon="4.9977">
        <ele>341.663</ele>
        <time>2013-04-05T08:24:27Z</time>
      </trkpt>
      <trkpt lat="47.29695" lon="4.9977">
        <ele>345.208</ele>
        <time>2013-04-05T08:24:38Z</time>
      </trkpt>
      <trkpt lat="47.29708" lon="4.9977">
        <ele>345.83</ele>
        <time>2013-04-05T08:24:49Z</time>
      </trkpt>
      <trkpt lat="47.29717" lon="4.99772">
        <ele>345.885</ele>
        <time>2013-04-05T08:25:00Z</time>
      </trkpt>
      <trkpt lat="47.2973" lon="4.99775">
        <ele>346.145</ele>
        <time>2013-04-05T08:25:11Z</time>
      </trkpt>
      <trkpt lat="47.29742" lon="4.99778">
        <ele>350.663</ele>
        <time>2013-04-05T08:25:22Z</time>
      </trkpt>
      <trkpt lat="47.29755" lon="4.99785">
        <ele>351.772</ele>
        <time>2013-04-05T08:25:33Z</time>
      </trkpt>
      <trkpt lat="47.29763" lon="4.99785">
        <ele>351.184</ele>
        <time>2013-04-05T08:25:44Z</time>
      </trkpt>
      <trkpt lat="47.29773" lon="4.99783">
        <ele>353.039</ele>
        <time>2013-04-05T08:25:55Z</time>
      </trkpt>
      <trkpt lat="47.29778" lon="4.99783">
        <ele>352.74</ele>
        <time>2013-04-05T08:26:06Z</time>
      </trkpt>
      <trkpt lat="47.2979" lon="4.99787">
        <ele>353.022</ele>
        <time>2013-04-05T08:26:17Z</time>
      </trkpt>
      <trkpt lat="47.29805" lon="4.99787">
        <ele>352.667</ele>
        <time>2013-04-05T08:26:28Z</time>
      </trkpt>
      <trkpt lat="47.29807" lon="4.99787">
        <ele>353.61</ele>
        <time>2013-04-05T08:26:39Z</time>
      </trkpt>
      <trkpt lat="47.29822" lon="4.99787">
        <ele>353.336</ele>
        <time>2013-04-05T08:26:50Z</time>
      </trkpt>
      <trkpt lat="47.29827" lon="4.99788">
        <ele>352.254</ele>
        <time>2013-04-05T08:27:01Z</time>
      </trkpt>
      <trkpt lat="47.2983" lon="4.99787">
        <ele>351.508</ele>
        <time>2013-04-05T08:27:12Z</time>
      </trkpt>
      <trkpt lat="47.2984" lon="4.99785">
        <ele>352.4</ele>
        <time>2013-04-05T08:27:23Z</time>
      </trkpt>
      <trkpt lat="47.29857" lon="4.99782">
        <ele>353.091</ele>
        <time>2013-04-05T08:27:34Z</time>
      </trkpt>
      <trkpt lat="47.29865" lon="4.99773">
        <ele>353.512</ele>
        <time>2013-04-05T08:27:45Z</time>
      </trkpt>
      <trkpt lat="47.29875" lon="4.99775">
        <ele>350.24</ele>
        <time>2013-04-05T08:27:56Z</time>
      </trkpt>
      <trkpt lat="47.2989" lon="4.99773">
        <ele>346.007</ele>
        <time>2013-04-05T08:28:07Z</time>
      </trkpt>
      <trkpt lat="47.29898" lon="4.99768">
        <ele>346.114</ele>
        <time>2013-04-05T08:28:18Z</time>
      </trkpt>
      <trkpt lat="47.29908" lon="4.99748">
        <ele>355.33</ele>
        <time>2013-04-05T08:28:29Z</time>
      </trkpt>
      <trkpt lat="47.29918" lon="4.9974">
        <ele>353.201</ele>
        <time>2013-04-05T08:28:40Z</time>
      </trkpt>
      <trkpt lat="47.29923" lon="4.99735">
        <ele>349.758</ele>
        <time>2013-04-05T08:28:51Z</time>
      </trkpt>
      <trkpt lat="47.29933" lon="4.9972">
        <ele>352.503</ele>
        <time>2013-04-05T08:29:02Z</time>
      </trkpt>
      <trkpt lat="47.29942" lon="4.99705">
        <ele>358.261</ele>
        <time>2013-04-05T08:29:13Z</time>
      </trkpt>
      <trkpt lat="47.29957" lon="4.99677">
        <ele>363.481</ele>
        <time>2013-04-05T08:29:24Z</time>
      </trkpt>
      <trkpt lat="47.2997" lon="4.9967">
        <ele>358.163</ele>
        <time>2013-04-05T08:29:35Z</time>
      </trkpt>
      <trkpt lat="47.2998" lon="4.99665">
        <ele>352.072</ele>
        <time>2013-04-05T08:29:46Z</time>
      </trkpt>
      <trkpt lat="47.29985" lon="4.99668">
        <ele>347.69</ele>
        <time>2013-04-05T08:29:57Z</time>
      </trkpt>
      <trkpt lat="47.3" lon="4.99668">
        <ele>347.492</ele>
        <time>2013-04-05T08:30:08Z</time>
      </trkpt>
      <trkpt lat="47.30005" lon="4.99658">
        <ele>347.215</ele>
        <time>2013-04-05T08:30:19Z</time>
      </trkpt>
      <trkpt lat="47.30007" lon="4.99645">
        <ele>342.281</ele>
        <time>2013-04-05T08:30:30Z</time>
      </trkpt>
      <trkpt lat="47.30013" lon="4.99637">
        <ele>340.796</ele>
        <time>2013-04-05T08:30:41Z</time>
      </trkpt>
      <trkpt lat="47.30017" lon="4.99622">
        <ele>339.412</ele>
        <time>2013-04-05T08:30:52Z</time>
      </trkpt>
      <trkpt lat="47.30025" lon="4.99608">
        <ele>336.666</ele>
        <time>2013-04-05T08:31:03Z</time>
      </trkpt>
      <trkpt lat="47.3003" lon="4.99587">
        <ele>342.259</ele>
        <time>2013-04-05T08:31:14Z</time>
      </trkpt>
      <trkpt lat="47.30032" lon="4.99502">
        <ele>412.647</ele>
        <time>2013-04-05T08:31:25Z</time>
      </trkpt>
      <trkpt lat="47.30035" lon="4.99485">
        <ele>410.518</ele>
        <time>2013-04-05T08:31:36Z</time>
      </trkpt>
      <trkpt lat="47.30038" lon="4.99465">
        <ele>403.767</ele>
        <time>2013-04-05T08:31:47Z</time>
      </trkpt>
      <trkpt lat="47.30043" lon="4.99455">
        <ele>400.34</ele>
        <time>2013-04-05T08:31:58Z</time>
      </trkpt>
      <trkpt lat="47.30045" lon="4.9944">
        <ele>399.339</ele>
        <time>2013-04-05T08:32:09Z</time>
      </trkpt>
      <trkpt lat="47.30047" lon="4.9942">
        <ele>400.84</ele>
        <time>2013-04-05T08:32:20Z</time>
      </trkpt>
      <trkpt lat="47.30053" lon="4.99393">
        <ele>401.612</ele>
        <time>2013-04-05T08:32:31Z</time>
      </trkpt>
      <trkpt lat="47.30053" lon="4.9939">
        <ele>401.296</ele>
        <time>2013-04-05T08:32:42Z</time>
      </trkpt>
      <trkpt lat="47.30058" lon="4.99382">
        <ele>399.672</ele>
        <time>2013-04-05T08:32:53Z</time>
      </trkpt>
      <trkpt lat="47.30058" lon="4.99382">
        <ele>399.672</ele>
        <time>2013-04-05T08:33:04Z</time>
      </trkpt>
      <trkpt lat="47.30058" lon="4.99382">
        <ele>399.434</ele>
        <time>2013-04-05T08:33:15Z</time>
      </trkpt>
      <trkpt lat="47.30058" lon="4.9938">
        <ele>399.158</ele>
        <time>2013-04-05T08:33:26Z</time>
      </trkpt>
      <trkpt lat="47.30058" lon="4.9938">
        <ele>398.129</ele>
        <time>2013-04-05T08:33:37Z</time>
      </trkpt>
      <trkpt lat="47.30058" lon="4.9938">
        <ele>398.129</ele>
        <time>2013-04-05T08:33:48Z</time>
      </trkpt>
      <trkpt lat="47.30058" lon="4.9938">
        <ele>398.129</ele>
        <time>2013-04-05T08:33:59Z</time>
      </trkpt>
      <trkpt lat="47.3006" lon="4.99377">
        <ele>398.241</ele>
        <time>2013-04-05T08:34:10Z</time>
      </trkpt>
      <trkpt lat="47.3006" lon="4.99373">
        <ele>398.569</ele>
        <time>2013-04-05T08:34:21Z</time>
      </trkpt>
      <trkpt lat="47.3006" lon="4.99373">
        <ele>398.569</ele>
        <time>2013-04-05T08:34:32Z</time>
      </trkpt>
      <trkpt lat="47.3006" lon="4.99373">
        <ele>398.569</ele>
        <time>2013-04-05T08:34:43Z</time>
      </trkpt>
      <trkpt lat="47.3006" lon="4.99373">
        <ele>397.875</ele>
        <time>2013-04-05T08:34:54Z</time>
      </trkpt>
      <trkpt lat="47.3006" lon="4.99372">
        <ele>397.119</ele>
        <time>2013-04-05T08:35:05Z</time>
      </trkpt>
      <trkpt lat="47.30062" lon="4.9937">
        <ele>398.516</ele>
        <time>2013-04-05T08:35:16Z</time>
      </trkpt>
      <trkpt lat="47.30062" lon="4.9937">
        <ele>398.75</ele>
        <time>2013-04-05T08:35:27Z</time>
      </trkpt>
      <trkpt lat="47.30062" lon="4.9937">
        <ele>398.092</ele>
        <time>2013-04-05T08:35:38Z</time>
      </trkpt>
      <trkpt lat="47.30067" lon="4.99362">
        <ele>394.534</ele>
        <time>2013-04-05T08:35:49Z</time>
      </trkpt>
      <trkpt lat="47.30073" lon="4.99343">
        <ele>393.937</ele>
        <time>2013-04-05T08:36:00Z</time>
      </trkpt>
      <trkpt lat="47.30078" lon="4.9933">
        <ele>393.072</ele>
        <time>2013-04-05T08:36:11Z</time>
      </trkpt>
      <trkpt lat="47.30083" lon="4.9932">
        <ele>391.114</ele>
        <time>2013-04-05T08:36:22Z</time>
      </trkpt>
      <trkpt lat="47.30088" lon="4.99295">
        <ele>390.208</ele>
        <time>2013-04-05T08:36:33Z</time>
      </trkpt>
      <trkpt lat="47.30092" lon="4.9927">
        <ele>389.836</ele>
        <time>2013-04-05T08:36:44Z</time>
      </trkpt>
      <trkpt lat="47.30093" lon="4.99253">
        <ele>389.226</ele>
        <time>2013-04-05T08:36:55Z</time>
      </trkpt>
      <trkpt lat="47.30098" lon="4.99238">
        <ele>388.175</ele>
        <time>2013-04-05T08:37:06Z</time>
      </trkpt>
      <trkpt lat="47.301" lon="4.99225">
        <ele>388.291</ele>
        <time>2013-04-05T08:37:17Z</time>
      </trkpt>
      <trkpt lat="47.3009" lon="4.99217">
        <ele>389.875</ele>
        <time>2013-04-05T08:37:28Z</time>
      </trkpt>
      <trkpt lat="47.30088" lon="4.99205">
        <ele>393.181</ele>
        <time>2013-04-05T08:37:39Z</time>
      </trkpt>
      <trkpt lat="47.30085" lon="4.99187">
        <ele>391.728</ele>
        <time>2013-04-05T08:37:50Z</time>
      </trkpt>
      <trkpt lat="47.30082" lon="4.99168">
        <ele>390.108</ele>
        <time>2013-04-05T08:38:01Z</time>
      </trkpt>
      <trkpt lat="47.30078" lon="4.99163">
        <ele>387.817</ele>
        <time>2013-04-05T08:38:12Z</time>
      </trkpt>
      <trkpt lat="47.30077" lon="4.99162">
        <ele>386.601</ele>
        <time>2013-04-05T08:38:23Z</time>
      </trkpt>
      <trkpt lat="47.30075" lon="4.9916">
        <ele>384.971</ele>
        <time>2013-04-05T08:38:34Z</time>
      </trkpt>
      <trkpt lat="47.30073" lon="4.9916">
        <ele>383.263</ele>
        <time>2013-04-05T08:38:45Z</time>
      </trkpt>
      <trkpt lat="47.30073" lon="4.99158">
        <ele>382.134</ele>
        <time>2013-04-05T08:38:56Z</time>
      </trkpt>
      <trkpt lat="47.30075" lon="4.99145">
        <ele>386.373</ele>
        <time>2013-04-05T08:39:07Z</time>
      </trkpt>
      <trkpt lat="47.30072" lon="4.99128">
        <ele>389.835</ele>
        <time>2013-04-05T08:39:18Z</time>
      </trkpt>
      <trkpt lat="47.30067" lon="4.99107">
        <ele>393.184</ele>
        <time>2013-04-05T08:39:29Z</time>
      </trkpt>
      <trkpt lat="47.30065" lon="4.99087">
        <ele>396.936</ele>
        <time>2013-04-05T08:39:40Z</time>
      </trkpt>
      <trkpt lat="47.30067" lon="4.9907">
        <ele>397.155</ele>
        <time>2013-04-05T08:39:51Z</time>
      </trkpt>
      <trkpt lat="47.30068" lon="4.99057">
        <ele>392.257</ele>
        <time>2013-04-05T08:40:02Z</time>
      </trkpt>
      <trkpt lat="47.30068" lon="4.9905">
        <ele>391.909</ele>
        <time>2013-04-05T08:40:13Z</time>
      </trkpt>
      <trkpt lat="47.3007" lon="4.9904">
        <ele>392.409</ele>
        <time>2013-04-05T08:40:24Z</time>
      </trkpt>
      <trkpt lat="47.30073" lon="4.99013">
        <ele>390.006</ele>
        <time>2013-04-05T08:40:35Z</time>
      </trkpt>
      <trkpt lat="47.30077" lon="4.98985">
        <ele>391.145</ele>
        <time>2013-04-05T08:40:46Z</time>
      </trkpt>
      <trkpt lat="47.30075" lon="4.9896">
        <ele>390.042</ele>
        <time>2013-04-05T08:40:57Z</time>
      </trkpt>
      <trkpt lat="47.30073" lon="4.98938">
        <ele>390.918</ele>
        <time>2013-04-05T08:41:08Z</time>
      </trkpt>
      <trkpt lat="47.3007" lon="4.98915">
        <ele>391.348</ele>
        <time>2013-04-05T08:41:19Z</time>
      </trkpt>
      <trkpt lat="47.30067" lon="4.98892">
        <ele>390.744</ele>
        <time>2013-04-05T08:41:30Z</time>
      </trkpt>
      <trkpt lat="47.30067" lon="4.98868">
        <ele>391.271</ele>
        <time>2013-04-05T08:41:41Z</time>
      </trkpt>
      <trkpt lat="47.30063" lon="4.98843">
        <ele>389.633</ele>
        <time>2013-04-05T08:41:52Z</time>
      </trkpt>
      <trkpt lat="47.3006" lon="4.98822">
        <ele>388.801</ele>
        <time>2013-04-05T08:42:03Z</time>
      </trkpt>
      <trkpt lat="47.30058" lon="4.988">
        <ele>389.959</ele>
        <time>2013-04-05T08:42:14Z</time>
      </trkpt>
      <trkpt lat="47.30055" lon="4.98782">
        <ele>391.972</ele>
        <time>2013-04-05T08:42:25Z</time>
      </trkpt>
      <trkpt lat="47.3005" lon="4.98762">
        <ele>392.846</ele>
        <time>2013-04-05T08:42:36Z</time>
      </trkpt>
      <trkpt lat="47.30047" lon="4.98745">
        <ele>393.855</ele>
        <time>2013-04-05T08:42:47Z</time>
      </trkpt>
      <trkpt lat="47.30047" lon="4.98722">
        <ele>391.58</ele>
        <time>2013-04-05T08:42:58Z</time>
      </trkpt>
      <trkpt lat="47.30053" lon="4.987">
        <ele>387.956</ele>
        <time>2013-04-05T08:43:09Z</time>
      </trkpt>
      <trkpt lat="47.3006" lon="4.9869">
        <ele>386.723</ele>
        <time>2013-04-05T08:43:20Z</time>
      </trkpt>
      <trkpt lat="47.30072" lon="4.98675">
        <ele>386.097</ele>
        <time>2013-04-05T08:43:31Z</time>
      </trkpt>
      <trkpt lat="47.3008" lon="4.98657">
        <ele>385.674</ele>
        <time>2013-04-05T08:43:42Z</time>
      </trkpt>
      <trkpt lat="47.3009" lon="4.9864">
        <ele>385.178</ele>
        <time>2013-04-05T08:43:53Z</time>
      </trkpt>
      <trkpt lat="47.30098" lon="4.98625">
        <ele>384.276</ele>
        <time>2013-04-05T08:44:04Z</time>
      </trkpt>
      <trkpt lat="47.30108" lon="4.98608">
        <ele>383.165</ele>
        <time>2013-04-05T08:44:15Z</time>
      </trkpt>
      <trkpt lat="47.30118" lon="4.98592">
        <ele>381.314</ele>
        <time>2013-04-05T08:44:26Z</time>
      </trkpt>
      <trkpt lat="47.30125" lon="4.98572">
        <ele>380.971</ele>
        <time>2013-04-05T08:44:37Z</time>
      </trkpt>
      <trkpt lat="47.3013" lon="4.9855">
        <ele>380.366</ele>
        <time>2013-04-05T08:44:48Z</time>
      </trkpt>
      <trkpt lat="47.30133" lon="4.98528">
        <ele>380.058</ele>
        <time>2013-04-05T08:44:59Z</time>
      </trkpt>
      <trkpt lat="47.30138" lon="4.98507">
        <ele>380.016</ele>
        <time>2013-04-05T08:45:10Z</time>
      </trkpt>
      <trkpt lat="47.3014" lon="4.98485">
        <ele>378.804</ele>
        <time>2013-04-05T08:45:21Z</time>
      </trkpt>
      <trkpt lat="47.30143" lon="4.98465">
        <ele>379.165</ele>
        <time>2013-04-05T08:45:32Z</time>
      </trkpt>
      <trkpt lat="47.30145" lon="4.98443">
        <ele>380.11</ele>
        <time>2013-04-05T08:45:43Z</time>
      </trkpt>
      <trkpt lat="47.30142" lon="4.98422">
        <ele>380.523</ele>
        <time>2013-04-05T08:45:54Z</time>
      </trkpt>
      <trkpt lat="47.30135" lon="4.98402">
        <ele>379.81</ele>
        <time>2013-04-05T08:46:05Z</time>
      </trkpt>
      <trkpt lat="47.30135" lon="4.98383">
        <ele>381.631</ele>
        <time>2013-04-05T08:46:16Z</time>
      </trkpt>
      <trkpt lat="47.30142" lon="4.9836">
        <ele>382.213</ele>
        <time>2013-04-05T08:46:27Z</time>
      </trkpt>
      <trkpt lat="47.30147" lon="4.98338">
        <ele>381.429</ele>
        <time>2013-04-05T08:46:38Z</time>
      </trkpt>
      <trkpt lat="47.30147" lon="4.98318">
        <ele>379.518</ele>
        <time>2013-04-05T08:46:49Z</time>
      </trkpt>
      <trkpt lat="47.3015" lon="4.98298">
        <ele>378.468</ele>
        <time>2013-04-05T08:47:00Z</time>
      </trkpt>
      <trkpt lat="47.3015" lon="4.98283">
        <ele>379.091</ele>
        <time>2013-04-05T08:47:11Z</time>
      </trkpt>
      <trkpt lat="47.3015" lon="4.98263">
        <ele>377.6</ele>
        <time>2013-04-05T08:47:22Z</time>
      </trkpt>
      <trkpt lat="47.30153" lon="4.9825">
        <ele>379.887</ele>
        <time>2013-04-05T08:47:33Z</time>
      </trkpt>
      <trkpt lat="47.3015" lon="4.98235">
        <ele>381.73</ele>
        <time>2013-04-05T08:47:44Z</time>
      </trkpt>
      <trkpt lat="47.30152" lon="4.98215">
        <ele>383.03</ele>
        <time>2013-04-05T08:47:55Z</time>
      </trkpt>
      <trkpt lat="47.30155" lon="4.982">
        <ele>383.66</ele>
        <time>2013-04-05T08:48:06Z</time>
      </trkpt>
      <trkpt lat="47.30167" lon="4.98188">
        <ele>383.769</ele>
        <time>2013-04-05T08:48:17Z</time>
      </trkpt>
      <trkpt lat="47.30187" lon="4.98182">
        <ele>384.784</ele>
        <time>2013-04-05T08:48:28Z</time>
      </trkpt>
      <trkpt lat="47.30197" lon="4.9818">
        <ele>386.061</ele>
        <time>2013-04-05T08:48:39Z</time>
      </trkpt>
      <trkpt lat="47.30207" lon="4.9817">
        <ele>384.413</ele>
        <time>2013-04-05T08:48:50Z</time>
      </trkpt>
      <trkpt lat="47.30222" lon="4.98155">
        <ele>383.846</ele>
        <time>2013-04-05T08:49:01Z</time>
      </trkpt>
      <trkpt lat="47.30232" lon="4.98145">
        <ele>379.087</ele>
        <time>2013-04-05T08:49:12Z</time>
      </trkpt>
      <trkpt lat="47.30243" lon="4.98133">
        <ele>377.925</ele>
        <time>2013-04-05T08:49:23Z</time>
      </trkpt>
      <trkpt lat="47.30255" lon="4.98117">
        <ele>376.712</ele>
        <time>2013-04-05T08:49:34Z</time>
      </trkpt>
      <trkpt lat="47.30263" lon="4.98103">
        <ele>376.172</ele>
        <time>2013-04-05T08:49:45Z</time>
      </trkpt>
      <trkpt lat="47.30277" lon="4.98088">
        <ele>377.259</ele>
        <time>2013-04-05T08:49:56Z</time>
      </trkpt>
      <trkpt lat="47.30283" lon="4.9807">
        <ele>376.674</ele>
        <time>2013-04-05T08:50:07Z</time>
      </trkpt>
      <trkpt lat="47.30282" lon="4.98048">
        <ele>376.001</ele>
        <time>2013-04-05T08:50:18Z</time>
      </trkpt>
      <trkpt lat="47.30278" lon="4.9803">
        <ele>375.424</ele>
        <time>2013-04-05T08:50:29Z</time>
      </trkpt>
      <trkpt lat="47.30273" lon="4.98013">
        <ele>377.063</ele>
        <time>2013-04-05T08:50:40Z</time>
      </trkpt>
      <trkpt lat="47.30265" lon="4.97997">
        <ele>378.793</ele>
        <time>2013-04-05T08:50:51Z</time>
      </trkpt>
      <trkpt lat="47.3026" lon="4.97978">
        <ele>380.605</ele>
        <time>2013-04-05T08:51:02Z</time>
      </trkpt>
      <trkpt lat="47.30252" lon="4.9796">
        <ele>382.46</ele>
        <time>2013-04-05T08:51:13Z</time>
      </trkpt>
      <trkpt lat="47.30247" lon="4.97945">
        <ele>385.196</ele>
        <time>2013-04-05T08:51:24Z</time>
      </trkpt>
      <trkpt lat="47.30238" lon="4.97932">
        <ele>384.547</ele>
        <time>2013-04-05T08:51:35Z</time>
      </trkpt>
      <trkpt lat="47.30232" lon="4.97918">
        <ele>385.575</ele>
        <time>2013-04-05T08:51:46Z</time>
      </trkpt>
      <trkpt lat="47.30223" lon="4.979">
        <ele>387.043</ele>
        <time>2013-04-05T08:51:57Z</time>
      </trkpt>
      <trkpt lat="47.30217" lon="4.9788">
        <ele>388.014</ele>
        <time>2013-04-05T08:52:08Z</time>
      </trkpt>
      <trkpt lat="47.30212" lon="4.97862">
        <ele>387.885</ele>
        <time>2013-04-05T08:52:19Z</time>
      </trkpt>
      <trkpt lat="47.30205" lon="4.97843">
        <ele>389.671</ele>
        <time>2013-04-05T08:52:30Z</time>
      </trkpt>
      <trkpt lat="47.30197" lon="4.97828">
        <ele>392.369</ele>
        <time>2013-04-05T08:52:41Z</time>
      </trkpt>
      <trkpt lat="47.3019" lon="4.97812">
        <ele>393.593</ele>
        <time>2013-04-05T08:52:52Z</time>
      </trkpt>
      <trkpt lat="47.30185" lon="4.97793">
        <ele>393.578</ele>
        <time>2013-04-05T08:53:03Z</time>
      </trkpt>
      <trkpt lat="47.30177" lon="4.97777">
        <ele>394.582</ele>
        <time>2013-04-05T08:53:14Z</time>
      </trkpt>
      <trkpt lat="47.30167" lon="4.97763">
        <ele>398.879</ele>
        <time>2013-04-05T08:53:25Z</time>
      </trkpt>
      <trkpt lat="47.3016" lon="4.97748">
        <ele>402.994</ele>
        <time>2013-04-05T08:53:36Z</time>
      </trkpt>
      <trkpt lat="47.30153" lon="4.9773">
        <ele>404.388</ele>
        <time>2013-04-05T08:53:47Z</time>
      </trkpt>
      <trkpt lat="47.30147" lon="4.97713">
        <ele>405.782</ele>
        <time>2013-04-05T08:53:58Z</time>
      </trkpt>
      <trkpt lat="47.30138" lon="4.97693">
        <ele>404.898</ele>
        <time>2013-04-05T08:54:09Z</time>
      </trkpt>
      <trkpt lat="47.30132" lon="4.97675">
        <ele>405.378</ele>
        <time>2013-04-05T08:54:20Z</time>
      </trkpt>
      <trkpt lat="47.30123" lon="4.9766">
        <ele>405.366</ele>
        <time>2013-04-05T08:54:31Z</time>
      </trkpt>
      <trkpt lat="47.30115" lon="4.97645">
        <ele>406.521</ele>
        <time>2013-04-05T08:54:42Z</time>
      </trkpt>
      <trkpt lat="47.30103" lon="4.97628">
        <ele>403.78</ele>
        <time>2013-04-05T08:54:53Z</time>
      </trkpt>
      <trkpt lat="47.30092" lon="4.97612">
        <ele>401.467</ele>
        <time>2013-04-05T08:55:04Z</time>
      </trkpt>
      <trkpt lat="47.30085" lon="4.97595">
        <ele>401.308</ele>
        <time>2013-04-05T08:55:15Z</time>
      </trkpt>
      <trkpt lat="47.30078" lon="4.97573">
        <ele>400.202</ele>
        <time>2013-04-05T08:55:26Z</time>
      </trkpt>
      <trkpt lat="47.3007" lon="4.97557">
        <ele>400.547</ele>
        <time>2013-04-05T08:55:37Z</time>
      </trkpt>
      <trkpt lat="47.3006" lon="4.9754">
        <ele>400.422</ele>
        <time>2013-04-05T08:55:48Z</time>
      </trkpt>
      <trkpt lat="47.30048" lon="4.97522">
        <ele>400.974</ele>
        <time>2013-04-05T08:55:59Z</time>
      </trkpt>
      <trkpt lat="47.30038" lon="4.97503">
        <ele>400.185</ele>
        <time>2013-04-05T08:56:10Z</time>
      </trkpt>
      <trkpt lat="47.3003" lon="4.97487">
        <ele>401.252</ele>
        <time>2013-04-05T08:56:21Z</time>
      </trkpt>
      <trkpt lat="47.30022" lon="4.97468">
        <ele>400.48</ele>
        <time>2013-04-05T08:56:32Z</time>
      </trkpt>
      <trkpt lat="47.30013" lon="4.97455">
        <ele>399.414</ele>
        <time>2013-04-05T08:56:43Z</time>
      </trkpt>
      <trkpt lat="47.30005" lon="4.97437">
        <ele>397.49</ele>
        <time>2013-04-05T08:56:54Z</time>
      </trkpt>
      <trkpt lat="47.29998" lon="4.97417">
        <ele>396.503</ele>
        <time>2013-04-05T08:57:05Z</time>
      </trkpt>
      <trkpt lat="47.2999" lon="4.97397">
        <ele>395.115</ele>
        <time>2013-04-05T08:57:16Z</time>
      </trkpt>
      <trkpt lat="47.2998" lon="4.97378">
        <ele>395.807</ele>
        <time>2013-04-05T08:57:27Z</time>
      </trkpt>
      <trkpt lat="47.29968" lon="4.97365">
        <ele>396.147</ele>
        <time>2013-04-05T08:57:38Z</time>
      </trkpt>
      <trkpt lat="47.29958" lon="4.97348">
        <ele>395.851</ele>
        <time>2013-04-05T08:57:49Z</time>
      </trkpt>
      <trkpt lat="47.29953" lon="4.97327">
        <ele>395.37</ele>
        <time>2013-04-05T08:58:00Z</time>
      </trkpt>
      <trkpt lat="47.29945" lon="4.97307">
        <ele>395.785</ele>
        <time>2013-04-05T08:58:11Z</time>
      </trkpt>
      <trkpt lat="47.29938" lon="4.97288">
        <ele>394.343</ele>
        <time>2013-04-05T08:58:22Z</time>
      </trkpt>
      <trkpt lat="47.29932" lon="4.97268">
        <ele>394.076</ele>
        <time>2013-04-05T08:58:33Z</time>
      </trkpt>
      <trkpt lat="47.29922" lon="4.97248">
        <ele>393.475</ele>
        <time>2013-04-05T08:58:44Z</time>
      </trkpt>
      <trkpt lat="47.29915" lon="4.97232">
        <ele>394.424</ele>
        <time>2013-04-05T08:58:55Z</time>
      </trkpt>
      <trkpt lat="47.299" lon="4.97218">
        <ele>393.707</ele>
        <time>2013-04-05T08:59:06Z</time>
      </trkpt>
      <trkpt lat="47.29888" lon="4.97205">
        <ele>393.378</ele>
        <time>2013-04-05T08:59:17Z</time>
      </trkpt>
      <trkpt lat="47.29877" lon="4.97192">
        <ele>394.88</ele>
        <time>2013-04-05T08:59:28Z</time>
      </trkpt>
      <trkpt lat="47.29865" lon="4.97182">
        <ele>395.977</ele>
        <time>2013-04-05T08:59:39Z</time>
      </trkpt>
      <trkpt lat="47.29862" lon="4.97175">
        <ele>398.58</ele>
        <time>2013-04-05T08:59:50Z</time>
      </trkpt>
      <trkpt lat="47.29862" lon="4.97175">
        <ele>398.248</ele>
        <time>2013-04-05T09:00:01Z</time>
      </trkpt>
      <trkpt lat="47.29858" lon="4.97173">
        <ele>397.801</ele>
        <time>2013-04-05T09:00:12Z</time>
      </trkpt>
      <trkpt lat="47.29857" lon="4.9717">
        <ele>398.032</ele>
        <time>2013-04-05T09:00:23Z</time>
      </trkpt>
      <trkpt lat="47.29857" lon="4.9717">
        <ele>397.789</ele>
        <time>2013-04-05T09:00:34Z</time>
      </trkpt>
      <trkpt lat="47.29855" lon="4.97168">
        <ele>397.602</ele>
        <time>2013-04-05T09:00:45Z</time>
      </trkpt>
      <trkpt lat="47.29855" lon="4.97168">
        <ele>397.602</ele>
        <time>2013-04-05T09:00:56Z</time>
      </trkpt>
      <trkpt lat="47.29855" lon="4.97168">
        <ele>397.602</ele>
        <time>2013-04-05T09:01:07Z</time>
      </trkpt>
      <trkpt lat="47.29855" lon="4.97168">
        <ele>397.602</ele>
        <time>2013-04-05T09:01:18Z</time>
      </trkpt>
      <trkpt lat="47.29855" lon="4.97168">
        <ele>397.602</ele>
        <time>2013-04-05T09:01:29Z</time>
      </trkpt>
      <trkpt lat="47.29855" lon="4.97168">
        <ele>397.602</ele>
        <time>2013-04-05T09:01:40Z</time>
      </trkpt>
      <trkpt lat="47.29855" lon="4.97168">
        <ele>397.602</ele>
        <time>2013-04-05T09:01:51Z</time>
      </trkpt>
      <trkpt lat="47.29855" lon="4.97168">
        <ele>397.602</ele>
        <time>2013-04-05T09:02:02Z</time>
      </trkpt>
      <trkpt lat="47.29855" lon="4.97168">
        <ele>397.027</ele>
        <time>2013-04-05T09:02:13Z</time>
      </trkpt>
      <trkpt lat="47.29855" lon="4.97168">
        <ele>397.027</ele>
        <time>2013-04-05T09:02:24Z</time>
      </trkpt>
      <trkpt lat="47.29855" lon="4.97168">
        <ele>397.027</ele>
        <time>2013-04-05T09:02:35Z</time>
      </trkpt>
      <trkpt lat="47.29855" lon="4.97168">
        <ele>397.173</ele>
        <time>2013-04-05T09:02:46Z</time>
      </trkpt>
      <trkpt lat="47.29852" lon="4.97172">
        <ele>398.659</ele>
        <time>2013-04-05T09:02:57Z</time>
      </trkpt>
      <trkpt lat="47.29848" lon="4.97173">
        <ele>398.479</ele>
        <time>2013-04-05T09:03:08Z</time>
      </trkpt>
      <trkpt lat="47.29838" lon="4.97178">
        <ele>399.165</ele>
        <time>2013-04-05T09:03:19Z</time>
      </trkpt>
      <trkpt lat="47.29825" lon="4.97185">
        <ele>400.752</ele>
        <time>2013-04-05T09:03:30Z</time>
      </trkpt>
      <trkpt lat="47.29812" lon="4.97188">
        <ele>401.584</ele>
        <time>2013-04-05T09:03:41Z</time>
      </trkpt>
      <trkpt lat="47.29798" lon="4.97193">
        <ele>402.427</ele>
        <time>2013-04-05T09:03:52Z</time>
      </trkpt>
      <trkpt lat="47.29782" lon="4.97192">
        <ele>401.968</ele>
        <time>2013-04-05T09:04:03Z</time>
      </trkpt>
      <trkpt lat="47.2977" lon="4.97187">
        <ele>402.457</ele>
        <time>2013-04-05T09:04:14Z</time>
      </trkpt>
      <trkpt lat="47.29753" lon="4.9718">
        <ele>402.276</ele>
        <time>2013-04-05T09:04:25Z</time>
      </trkpt>
      <trkpt lat="47.29737" lon="4.9718">
        <ele>401.968</ele>
        <time>2013-04-05T09:04:36Z</time>
      </trkpt>
      <trkpt lat="47.29723" lon="4.97185">
        <ele>401.267</ele>
        <time>2013-04-05T09:04:47Z</time>
      </trkpt>
      <trkpt lat="47.29708" lon="4.97192">
        <ele>401.1</ele>
        <time>2013-04-05T09:04:58Z</time>
      </trkpt>
      <trkpt lat="47.29692" lon="4.972">
        <ele>401.536</ele>
        <time>2013-04-05T09:05:09Z</time>
      </trkpt>
      <trkpt lat="47.29678" lon="4.9721">
        <ele>403.274</ele>
        <time>2013-04-05T09:05:20Z</time>
      </trkpt>
      <trkpt lat="47.29662" lon="4.97213">
        <ele>403.194</ele>
        <time>2013-04-05T09:05:31Z</time>
      </trkpt>
      <trkpt lat="47.29645" lon="4.97217">
        <ele>402.275</ele>
        <time>2013-04-05T09:05:42Z</time>
      </trkpt>
      <trkpt lat="47.29632" lon="4.97218">
        <ele>402.371</ele>
        <time>2013-04-05T09:05:53Z</time>
      </trkpt>
      <trkpt lat="47.29615" lon="4.97218">
        <ele>402.322</ele>
        <time>2013-04-05T09:06:04Z</time>
      </trkpt>
      <trkpt lat="47.296" lon="4.9722">
        <ele>403.047</ele>
        <time>2013-04-05T09:06:15Z</time>
      </trkpt>
      <trkpt lat="47.29585" lon="4.97227">
        <ele>403.771</ele>
        <time>2013-04-05T09:06:26Z</time>
      </trkpt>
      <trkpt lat="47.29573" lon="4.97238">
        <ele>403.964</ele>
        <time>2013-04-05T09:06:37Z</time>
      </trkpt>
      <trkpt lat="47.29565" lon="4.97257">
        <ele>405.664</ele>
        <time>2013-04-05T09:06:48Z</time>
      </trkpt>
      <trkpt lat="47.29557" lon="4.97272">
        <ele>406.208</ele>
        <time>2013-04-05T09:06:59Z</time>
      </trkpt>
      <trkpt lat="47.29543" lon="4.97285">
        <ele>407.004</ele>
        <time>2013-04-05T09:07:10Z</time>
      </trkpt>
      <trkpt lat="47.2953" lon="4.97298">
        <ele>405.736</ele>
        <time>2013-04-05T09:07:21Z</time>
      </trkpt>
      <trkpt lat="47.29518" lon="4.97312">
        <ele>407.224</ele>
        <time>2013-04-05T09:07:32Z</time>
      </trkpt>
      <trkpt lat="47.2951" lon="4.97322">
        <ele>408.16</ele>
        <time>2013-04-05T09:07:43Z</time>
      </trkpt>
      <trkpt lat="47.29503" lon="4.9734">
        <ele>408.969</ele>
        <time>2013-04-05T09:07:54Z</time>
      </trkpt>
      <trkpt lat="47.2949" lon="4.97347">
        <ele>409.434</ele>
        <time>2013-04-05T09:08:05Z</time>
      </trkpt>
      <trkpt lat="47.29485" lon="4.97348">
        <ele>407.798</ele>
        <time>2013-04-05T09:08:16Z</time>
      </trkpt>
      <trkpt lat="47.2947" lon="4.97357">
        <ele>406.601</ele>
        <time>2013-04-05T09:08:27Z</time>
      </trkpt>
      <trkpt lat="47.29462" lon="4.97375">
        <ele>406.939</ele>
        <time>2013-04-05T09:08:38Z</time>
      </trkpt>
      <trkpt lat="47.29448" lon="4.97385">
        <ele>406.181</ele>
        <time>2013-04-05T09:08:49Z</time>
      </trkpt>
      <trkpt lat="47.29435" lon="4.97392">
        <ele>405.332</ele>
        <time>2013-04-05T09:09:00Z</time>
      </trkpt>
      <trkpt lat="47.2942" lon="4.97395">
        <ele>405.228</ele>
        <time>2013-04-05T09:09:11Z</time>
      </trkpt>
      <trkpt lat="47.29407" lon="4.97397">
        <ele>404.759</ele>
        <time>2013-04-05T09:09:22Z</time>
      </trkpt>
      <trkpt lat="47.29398" lon="4.97412">
        <ele>403.983</ele>
        <time>2013-04-05T09:09:33Z</time>
      </trkpt>
      <trkpt lat="47.29387" lon="4.97427">
        <ele>403.306</ele>
        <time>2013-04-05T09:09:44Z</time>
      </trkpt>
      <trkpt lat="47.29373" lon="4.97427">
        <ele>402.729</ele>
        <time>2013-04-05T09:09:55Z</time>
      </trkpt>
      <trkpt lat="47.29362" lon="4.97423">
        <ele>403.841</ele>
        <time>2013-04-05T09:10:06Z</time>
      </trkpt>
      <trkpt lat="47.2935" lon="4.97428">
        <ele>404.476</ele>
        <time>2013-04-05T09:10:17Z</time>
      </trkpt>
      <trkpt lat="47.29337" lon="4.97435">
        <ele>405.777</ele>
        <time>2013-04-05T09:10:28Z</time>
      </trkpt>
      <trkpt lat="47.29325" lon="4.97447">
        <ele>406.626</ele>
        <time>2013-04-05T09:10:39Z</time>
      </trkpt>
      <trkpt lat="47.29317" lon="4.97455">
        <ele>407.238</ele>
        <time>2013-04-05T09:10:50Z</time>
      </trkpt>
      <trkpt lat="47.29315" lon="4.97453">
        <ele>407.448</ele>
        <time>2013-04-05T09:11:01Z</time>
      </trkpt>
      <trkpt lat="47.29315" lon="4.97453">
        <ele>407.603</ele>
        <time>2013-04-05T09:11:12Z</time>
      </trkpt>
      <trkpt lat="47.29315" lon="4.97453">
        <ele>407.603</ele>
        <time>2013-04-05T09:11:23Z</time>
      </trkpt>
      <trkpt lat="47.29313" lon="4.97453">
        <ele>407.494</ele>
        <time>2013-04-05T09:11:34Z</time>
      </trkpt>
      <trkpt lat="47.29313" lon="4.97455">
        <ele>407.601</ele>
        <time>2013-04-05T09:11:45Z</time>
      </trkpt>
      <trkpt lat="47.29313" lon="4.97455">
        <ele>406.732</ele>
        <time>2013-04-05T09:11:56Z</time>
      </trkpt>
      <trkpt lat="47.29312" lon="4.97455">
        <ele>405.808</ele>
        <time>2013-04-05T09:12:07Z</time>
      </trkpt>
      <trkpt lat="47.29308" lon="4.97453">
        <ele>405.378</ele>
        <time>2013-04-05T09:12:18Z</time>
      </trkpt>
      <trkpt lat="47.29298" lon="4.97458">
        <ele>404.494</ele>
        <time>2013-04-05T09:12:29Z</time>
      </trkpt>
      <trkpt lat="47.29282" lon="4.97472">
        <ele>404.7</ele>
        <time>2013-04-05T09:12:40Z</time>
      </trkpt>
      <trkpt lat="47.29268" lon="4.97488">
        <ele>404.052</ele>
        <time>2013-04-05T09:12:51Z</time>
      </trkpt>
      <trkpt lat="47.29258" lon="4.97508">
        <ele>403.284</ele>
        <time>2013-04-05T09:13:02Z</time>
      </trkpt>
      <trkpt lat="47.29248" lon="4.9753">
        <ele>401.604</ele>
        <time>2013-04-05T09:13:13Z</time>
      </trkpt>
      <trkpt lat="47.29245" lon="4.9755">
        <ele>399.686</ele>
        <time>2013-04-05T09:13:24Z</time>
      </trkpt>
      <trkpt lat="47.29243" lon="4.9757">
        <ele>398.019</ele>
        <time>2013-04-05T09:13:35Z</time>
      </trkpt>
      <trkpt lat="47.29245" lon="4.97592">
        <ele>398.38</ele>
        <time>2013-04-05T09:13:46Z</time>
      </trkpt>
      <trkpt lat="47.29248" lon="4.97613">
        <ele>396.254</ele>
        <time>2013-04-05T09:13:57Z</time>
      </trkpt>
      <trkpt lat="47.29252" lon="4.97633">
        <ele>395.882</ele>
        <time>2013-04-05T09:14:08Z</time>
      </trkpt>
      <trkpt lat="47.29255" lon="4.97653">
        <ele>396.328</ele>
        <time>2013-04-05T09:14:19Z</time>
      </trkpt>
      <trkpt lat="47.29262" lon="4.97675">
        <ele>395.928</ele>
        <time>2013-04-05T09:14:30Z</time>
      </trkpt>
      <trkpt lat="47.29267" lon="4.97693">
        <ele>395.374</ele>
        <time>2013-04-05T09:14:41Z</time>
      </trkpt>
      <trkpt lat="47.29277" lon="4.97708">
        <ele>394.836</ele>
        <time>2013-04-05T09:14:52Z</time>
      </trkpt>
      <trkpt lat="47.29288" lon="4.97725">
        <ele>394.057</ele>
        <time>2013-04-05T09:15:03Z</time>
      </trkpt>
      <trkpt lat="47.29302" lon="4.97738">
        <ele>393.84</ele>
        <time>2013-04-05T09:15:14Z</time>
      </trkpt>
      <trkpt lat="47.29305" lon="4.97745">
        <ele>394.736</ele>
        <time>2013-04-05T09:15:25Z</time>
      </trkpt>
      <trkpt lat="47.2931" lon="4.97758">
        <ele>393.11</ele>
        <time>2013-04-05T09:15:36Z</time>
      </trkpt>
      <trkpt lat="47.29317" lon="4.97763">
        <ele>392.965</ele>
        <time>2013-04-05T09:15:47Z</time>
      </trkpt>
      <trkpt lat="47.29327" lon="4.97772">
        <ele>393.915</ele>
        <time>2013-04-05T09:15:58Z</time>
      </trkpt>
      <trkpt lat="47.29335" lon="4.97778">
        <ele>395.031</ele>
        <time>2013-04-05T09:16:09Z</time>
      </trkpt>
      <trkpt lat="47.29345" lon="4.9778">
        <ele>395.697</ele>
        <time>2013-04-05T09:16:20Z</time>
      </trkpt>
      <trkpt lat="47.29357" lon="4.97787">
        <ele>396.656</ele>
        <time>2013-04-05T09:16:31Z</time>
      </trkpt>
      <trkpt lat="47.29358" lon="4.97793">
        <ele>396.84</ele>
        <time>2013-04-05T09:16:42Z</time>
      </trkpt>
      <trkpt lat="47.29358" lon="4.97793">
        <ele>396.84</ele>
        <time>2013-04-05T09:16:53Z</time>
      </trkpt>
      <trkpt lat="47.29358" lon="4.97793">
        <ele>396.84</ele>
        <time>2013-04-05T09:17:04Z</time>
      </trkpt>
      <trkpt lat="47.29358" lon="4.97793">
        <ele>396.84</ele>
        <time>2013-04-05T09:17:15Z</time>
      </trkpt>
      <trkpt lat="47.29358" lon="4.97793">
        <ele>396.84</ele>
        <time>2013-04-05T09:17:26Z</time>
      </trkpt>
      <trkpt lat="47.29358" lon="4.97793">
        <ele>396.84</ele>
        <time>2013-04-05T09:17:37Z</time>
      </trkpt>
      <trkpt lat="47.2936" lon="4.97797">
        <ele>396.78</ele>
        <time>2013-04-05T09:17:48Z</time>
      </trkpt>
      <trkpt lat="47.29362" lon="4.97798">
        <ele>396.656</ele>
        <time>2013-04-05T09:17:59Z</time>
      </trkpt>
      <trkpt lat="47.29362" lon="4.97798">
        <ele>396.527</ele>
        <time>2013-04-05T09:18:10Z</time>
      </trkpt>
      <trkpt lat="47.29362" lon="4.97808">
        <ele>396.476</ele>
        <time>2013-04-05T09:18:21Z</time>
      </trkpt>
      <trkpt lat="47.2936" lon="4.97823">
        <ele>397.265</ele>
        <time>2013-04-05T09:18:32Z</time>
      </trkpt>
      <trkpt lat="47.29358" lon="4.97838">
        <ele>399.261</ele>
        <time>2013-04-05T09:18:43Z</time>
      </trkpt>
      <trkpt lat="47.29352" lon="4.97852">
        <ele>398.363</ele>
        <time>2013-04-05T09:18:54Z</time>
      </trkpt>
      <trkpt lat="47.29342" lon="4.97857">
        <ele>398.34</ele>
        <time>2013-04-05T09:19:05Z</time>
      </trkpt>
      <trkpt lat="47.29332" lon="4.97862">
        <ele>399.359</ele>
        <time>2013-04-05T09:19:16Z</time>
      </trkpt>
      <trkpt lat="47.29322" lon="4.97862">
        <ele>399.442</ele>
        <time>2013-04-05T09:19:27Z</time>
      </trkpt>
      <trkpt lat="47.2931" lon="4.9786">
        <ele>400.361</ele>
        <time>2013-04-05T09:19:38Z</time>
      </trkpt>
      <trkpt lat="47.29298" lon="4.97858">
        <ele>401.056</ele>
        <time>2013-04-05T09:19:49Z</time>
      </trkpt>
      <trkpt lat="47.29293" lon="4.9785">
        <ele>398.645</ele>
        <time>2013-04-05T09:20:00Z</time>
      </trkpt>
      <trkpt lat="47.29283" lon="4.97838">
        <ele>397.076</ele>
        <time>2013-04-05T09:20:11Z</time>
      </trkpt>
      <trkpt lat="47.29268" lon="4.97833">
        <ele>396.902</ele>
        <time>2013-04-05T09:20:22Z</time>
      </trkpt>
      <trkpt lat="47.29253" lon="4.97835">
        <ele>396.501</ele>
        <time>2013-04-05T09:20:33Z</time>
      </trkpt>
      <trkpt lat="47.29248" lon="4.97835">
        <ele>395.13</ele>
        <time>2013-04-05T09:20:44Z</time>
      </trkpt>
      <trkpt lat="47.29232" lon="4.97833">
        <ele>395.07</ele>
        <time>2013-04-05T09:20:55Z</time>
      </trkpt>
      <trkpt lat="47.29213" lon="4.9783">
        <ele>394.912</ele>
        <time>2013-04-05T09:21:06Z</time>
      </trkpt>
      <trkpt lat="47.29197" lon="4.9783">
        <ele>394.75</ele>
        <time>2013-04-05T09:21:17Z</time>
      </trkpt>
      <trkpt lat="47.29178" lon="4.97833">
        <ele>393.876</ele>
        <time>2013-04-05T09:21:28Z</time>
      </trkpt>
      <trkpt lat="47.29167" lon="4.97847">
        <ele>392.26</ele>
        <time>2013-04-05T09:21:39Z</time>
      </trkpt>
      <trkpt lat="47.29158" lon="4.97863">
        <ele>390.828</ele>
        <time>2013-04-05T09:21:50Z</time>
      </trkpt>
      <trkpt lat="47.2916" lon="4.97882">
        <ele>390.625</ele>
        <time>2013-04-05T09:22:01Z</time>
      </trkpt>
      <trkpt lat="47.29165" lon="4.97895">
        <ele>389.782</ele>
        <time>2013-04-05T09:22:12Z</time>
      </trkpt>
      <trkpt lat="47.29173" lon="4.97918">
        <ele>389.159</ele>
        <time>2013-04-05T09:22:23Z</time>
      </trkpt>
      <trkpt lat="47.29182" lon="4.97937">
        <ele>388.724</ele>
        <time>2013-04-05T09:22:34Z</time>
      </trkpt>
      <trkpt lat="47.29188" lon="4.97953">
        <ele>388.645</ele>
        <time>2013-04-05T09:22:45Z</time>
      </trkpt>
      <trkpt lat="47.292" lon="4.97973">
        <ele>389.169</ele>
        <time>2013-04-05T09:22:56Z</time>
      </trkpt>
      <trkpt lat="47.29203" lon="4.97983">
        <ele>389.19</ele>
        <time>2013-04-05T09:23:07Z</time>
      </trkpt>
      <trkpt lat="47.29208" lon="4.97993">
        <ele>389.643</ele>
        <time>2013-04-05T09:23:18Z</time>
      </trkpt>
      <trkpt lat="47.2922" lon="4.98008">
        <ele>390.106</ele>
        <time>2013-04-05T09:23:29Z</time>
      </trkpt>
      <trkpt lat="47.2923" lon="4.98027">
        <ele>390.538</ele>
        <time>2013-04-05T09:23:40Z</time>
      </trkpt>
      <trkpt lat="47.29243" lon="4.98042">
        <ele>390.537</ele>
        <time>2013-04-05T09:23:51Z</time>
      </trkpt>
      <trkpt lat="47.29252" lon="4.98057">
        <ele>390.703</ele>
        <time>2013-04-05T09:24:02Z</time>
      </trkpt>
      <trkpt lat="47.29255" lon="4.98065">
        <ele>391.03</ele>
        <time>2013-04-05T09:24:13Z</time>
      </trkpt>
      <trkpt lat="47.29255" lon="4.98068">
        <ele>390.045</ele>
        <time>2013-04-05T09:24:24Z</time>
      </trkpt>
      <trkpt lat="47.29253" lon="4.98078">
        <ele>387.699</ele>
        <time>2013-04-05T09:24:35Z</time>
      </trkpt>
      <trkpt lat="47.2925" lon="4.98087">
        <ele>386.576</ele>
        <time>2013-04-05T09:24:46Z</time>
      </trkpt>
      <trkpt lat="47.29245" lon="4.98103">
        <ele>384.186</ele>
        <time>2013-04-05T09:24:57Z</time>
      </trkpt>
      <trkpt lat="47.2924" lon="4.98118">
        <ele>382.26</ele>
        <time>2013-04-05T09:25:08Z</time>
      </trkpt>
      <trkpt lat="47.29235" lon="4.9813">
        <ele>385.243</ele>
        <time>2013-04-05T09:25:19Z</time>
      </trkpt>
      <trkpt lat="47.29232" lon="4.98138">
        <ele>390.836</ele>
        <time>2013-04-05T09:25:30Z</time>
      </trkpt>
      <trkpt lat="47.29227" lon="4.9815">
        <ele>391.859</ele>
        <time>2013-04-05T09:25:41Z</time>
      </trkpt>
      <trkpt lat="47.29223" lon="4.98162">
        <ele>395.214</ele>
        <time>2013-04-05T09:25:52Z</time>
      </trkpt>
      <trkpt lat="47.29222" lon="4.98175">
        <ele>397.771</ele>
        <time>2013-04-05T09:26:03Z</time>
      </trkpt>
      <trkpt lat="47.29218" lon="4.98182">
        <ele>398.063</ele>
        <time>2013-04-05T09:26:14Z</time>
      </trkpt>
      <trkpt lat="47.29218" lon="4.98182">
        <ele>398.063</ele>
        <time>2013-04-05T09:26:25Z</time>
      </trkpt>
      <trkpt lat="47.29218" lon="4.98182">
        <ele>397.711</ele>
        <time>2013-04-05T09:26:36Z</time>
      </trkpt>
      <trkpt lat="47.29218" lon="4.98182">
        <ele>397.711</ele>
        <time>2013-04-05T09:26:47Z</time>
      </trkpt>
      <trkpt lat="47.29218" lon="4.98182">
        <ele>397.711</ele>
        <time>2013-04-05T09:26:58Z</time>
      </trkpt>
      <trkpt lat="47.29218" lon="4.98183">
        <ele>398.103</ele>
        <time>2013-04-05T09:27:09Z</time>
      </trkpt>
      <trkpt lat="47.29218" lon="4.98183">
        <ele>397.939</ele>
        <time>2013-04-05T09:27:20Z</time>
      </trkpt>
      <trkpt lat="47.29218" lon="4.98183">
        <ele>397.939</ele>
        <time>2013-04-05T09:27:31Z</time>
      </trkpt>
      <trkpt lat="47.29218" lon="4.98183">
        <ele>398.036</ele>
        <time>2013-04-05T09:27:42Z</time>
      </trkpt>
      <trkpt lat="47.29218" lon="4.98183">
        <ele>398.048</ele>
        <time>2013-04-05T09:27:53Z</time>
      </trkpt>
      <trkpt lat="47.29218" lon="4.98183">
        <ele>398.048</ele>
        <time>2013-04-05T09:28:04Z</time>
      </trkpt>
      <trkpt lat="47.29218" lon="4.98183">
        <ele>398.048</ele>
        <time>2013-04-05T09:28:15Z</time>
      </trkpt>
      <trkpt lat="47.29218" lon="4.98183">
        <ele>398.147</ele>
        <time>2013-04-05T09:28:26Z</time>
      </trkpt>
      <trkpt lat="47.29218" lon="4.98183">
        <ele>398.021</ele>
        <time>2013-04-05T09:28:37Z</time>
      </trkpt>
      <trkpt lat="47.29218" lon="4.98185">
        <ele>397.873</ele>
        <time>2013-04-05T09:28:48Z</time>
      </trkpt>
      <trkpt lat="47.29217" lon="4.98185">
        <ele>397.697</ele>
        <time>2013-04-05T09:28:59Z</time>
      </trkpt>
      <trkpt lat="47.29208" lon="4.98183">
        <ele>397.153</ele>
        <time>2013-04-05T09:29:10Z</time>
      </trkpt>
      <trkpt lat="47.29195" lon="4.98183">
        <ele>397.084</ele>
        <time>2013-04-05T09:29:21Z</time>
      </trkpt>
      <trkpt lat="47.29182" lon="4.98187">
        <ele>397.419</ele>
        <time>2013-04-05T09:29:32Z</time>
      </trkpt>
      <trkpt lat="47.29168" lon="4.98195">
        <ele>399.02</ele>
        <time>2013-04-05T09:29:43Z</time>
      </trkpt>
      <trkpt lat="47.29152" lon="4.982">
        <ele>398.66</ele>
        <time>2013-04-05T09:29:54Z</time>
      </trkpt>
      <trkpt lat="47.29138" lon="4.98208">
        <ele>399.871</ele>
        <time>2013-04-05T09:30:05Z</time>
      </trkpt>
      <trkpt lat="47.29125" lon="4.98212">
        <ele>401.516</ele>
        <time>2013-04-05T09:30:16Z</time>
      </trkpt>
      <trkpt lat="47.29115" lon="4.98218">
        <ele>402.464</ele>
        <time>2013-04-05T09:30:27Z</time>
      </trkpt>
      <trkpt lat="47.29105" lon="4.98227">
        <ele>403.764</ele>
        <time>2013-04-05T09:30:38Z</time>
      </trkpt>
      <trkpt lat="47.29095" lon="4.98227">
        <ele>405.469</ele>
        <time>2013-04-05T09:30:49Z</time>
      </trkpt>
      <trkpt lat="47.29085" lon="4.98223">
        <ele>405.978</ele>
        <time>2013-04-05T09:31:00Z</time>
      </trkpt>
      <trkpt lat="47.29077" lon="4.98215">
        <ele>406.882</ele>
        <time>2013-04-05T09:31:11Z</time>
      </trkpt>
      <trkpt lat="47.2907" lon="4.98203">
        <ele>407.284</ele>
        <time>2013-04-05T09:31:22Z</time>
      </trkpt>
      <trkpt lat="47.29057" lon="4.98188">
        <ele>407.271</ele>
        <time>2013-04-05T09:31:33Z</time>
      </trkpt>
      <trkpt lat="47.29043" lon="4.98178">
        <ele>407.584</ele>
        <time>2013-04-05T09:31:44Z</time>
      </trkpt>
      <trkpt lat="47.29025" lon="4.98173">
        <ele>409.906</ele>
        <time>2013-04-05T09:31:55Z</time>
      </trkpt>
      <trkpt lat="47.29017" lon="4.98165">
        <ele>412.21</ele>
        <time>2013-04-05T09:32:06Z</time>
      </trkpt>
      <trkpt lat="47.29003" lon="4.98155">
        <ele>413.155</ele>
        <time>2013-04-05T09:32:17Z</time>
      </trkpt>
      <trkpt lat="47.28985" lon="4.98148">
        <ele>412.521</ele>
        <time>2013-04-05T09:32:28Z</time>
      </trkpt>
      <trkpt lat="47.28972" lon="4.98143">
        <ele>413.166</ele>
        <time>2013-04-05T09:32:39Z</time>
      </trkpt>
      <trkpt lat="47.28952" lon="4.98145">
        <ele>411.894</ele>
        <time>2013-04-05T09:32:50Z</time>
      </trkpt>
      <trkpt lat="47.28938" lon="4.98153">
        <ele>408.856</ele>
        <time>2013-04-05T09:33:01Z</time>
      </trkpt>
      <trkpt lat="47.28932" lon="4.98155">
        <ele>407.651</ele>
        <time>2013-04-05T09:33:12Z</time>
      </trkpt>
      <trkpt lat="47.28932" lon="4.98155">
        <ele>407.651</ele>
        <time>2013-04-05T09:33:23Z</time>
      </trkpt>
      <trkpt lat="47.28932" lon="4.98155">
        <ele>407.651</ele>
        <time>2013-04-05T09:33:34Z</time>
      </trkpt>
      <trkpt lat="47.28932" lon="4.98155">
        <ele>407.623</ele>
        <time>2013-04-05T09:33:45Z</time>
      </trkpt>
      <trkpt lat="47.28932" lon="4.98155">
        <ele>407.623</ele>
        <time>2013-04-05T09:33:56Z</time>
      </trkpt>
      <trkpt lat="47.28932" lon="4.98155">
        <ele>407.345</ele>
        <time>2013-04-05T09:34:07Z</time>
      </trkpt>
      <trkpt lat="47.28932" lon="4.98155">
        <ele>407.416</ele>
        <time>2013-04-05T09:34:18Z</time>
      </trkpt>
      <trkpt lat="47.28928" lon="4.98155">
        <ele>407.355</ele>
        <time>2013-04-05T09:34:29Z</time>
      </trkpt>
      <trkpt lat="47.2892" lon="4.98157">
        <ele>405.173</ele>
        <time>2013-04-05T09:34:40Z</time>
      </trkpt>
      <trkpt lat="47.28905" lon="4.98165">
        <ele>403.649</ele>
        <time>2013-04-05T09:34:51Z</time>
      </trkpt>
      <trkpt lat="47.28893" lon="4.98177">
        <ele>400.152</ele>
        <time>2013-04-05T09:35:02Z</time>
      </trkpt>
      <trkpt lat="47.28882" lon="4.98178">
        <ele>397.554</ele>
        <time>2013-04-05T09:35:13Z</time>
      </trkpt>
      <trkpt lat="47.28867" lon="4.98188">
        <ele>396.18</ele>
        <time>2013-04-05T09:35:24Z</time>
      </trkpt>
      <trkpt lat="47.2885" lon="4.98192">
        <ele>393.717</ele>
        <time>2013-04-05T09:35:35Z</time>
      </trkpt>
      <trkpt lat="47.28837" lon="4.98188">
        <ele>392.492</ele>
        <time>2013-04-05T09:35:46Z</time>
      </trkpt>
      <trkpt lat="47.28823" lon="4.98193">
        <ele>390.333</ele>
        <time>2013-04-05T09:35:57Z</time>
      </trkpt>
      <trkpt lat="47.28812" lon="4.98205">
        <ele>387.474</ele>
        <time>2013-04-05T09:36:08Z</time>
      </trkpt>
      <trkpt lat="47.288" lon="4.98215">
        <ele>386.534</ele>
        <time>2013-04-05T09:36:19Z</time>
      </trkpt>
      <trkpt lat="47.28792" lon="4.9823">
        <ele>386.146</ele>
        <time>2013-04-05T09:36:30Z</time>
      </trkpt>
      <trkpt lat="47.28783" lon="4.98237">
        <ele>386.194</ele>
        <time>2013-04-05T09:36:41Z</time>
      </trkpt>
      <trkpt lat="47.28772" lon="4.98252">
        <ele>386.853</ele>
        <time>2013-04-05T09:36:52Z</time>
      </trkpt>
      <trkpt lat="47.28762" lon="4.98265">
        <ele>385.797</ele>
        <time>2013-04-05T09:37:03Z</time>
      </trkpt>
      <trkpt lat="47.28752" lon="4.98278">
        <ele>384.461</ele>
        <time>2013-04-05T09:37:14Z</time>
      </trkpt>
      <trkpt lat="47.28738" lon="4.9829">
        <ele>382.009</ele>
        <time>2013-04-05T09:37:25Z</time>
      </trkpt>
      <trkpt lat="47.2872" lon="4.983">
        <ele>380.348</ele>
        <time>2013-04-05T09:37:36Z</time>
      </trkpt>
      <trkpt lat="47.2871" lon="4.98307">
        <ele>382.071</ele>
        <time>2013-04-05T09:37:47Z</time>
      </trkpt>
      <trkpt lat="47.28702" lon="4.98317">
        <ele>384.27</ele>
        <time>2013-04-05T09:37:58Z</time>
      </trkpt>
      <trkpt lat="47.28687" lon="4.9832">
        <ele>380.786</ele>
        <time>2013-04-05T09:38:09Z</time>
      </trkpt>
      <trkpt lat="47.28667" lon="4.98322">
        <ele>379.241</ele>
        <time>2013-04-05T09:38:20Z</time>
      </trkpt>
      <trkpt lat="47.28652" lon="4.98328">
        <ele>375.211</ele>
        <time>2013-04-05T09:38:31Z</time>
      </trkpt>
      <trkpt lat="47.28637" lon="4.9833">
        <ele>371.238</ele>
        <time>2013-04-05T09:38:42Z</time>
      </trkpt>
      <trkpt lat="47.28623" lon="4.98337">
        <ele>369.716</ele>
        <time>2013-04-05T09:38:53Z</time>
      </trkpt>
      <trkpt lat="47.28612" lon="4.98345">
        <ele>366.452</ele>
        <time>2013-04-05T09:39:04Z</time>
      </trkpt>
      <trkpt lat="47.28603" lon="4.98347">
        <ele>365.24</ele>
        <time>2013-04-05T09:39:15Z</time>
      </trkpt>
      <trkpt lat="47.28595" lon="4.98347">
        <ele>362.881</ele>
        <time>2013-04-05T09:39:26Z</time>
      </trkpt>
      <trkpt lat="47.28592" lon="4.98348">
        <ele>362.283</ele>
        <time>2013-04-05T09:39:37Z</time>
      </trkpt>
      <trkpt lat="47.28588" lon="4.98347">
        <ele>360.224</ele>
        <time>2013-04-05T09:39:48Z</time>
      </trkpt>
      <trkpt lat="47.28582" lon="4.98338">
        <ele>358.014</ele>
        <time>2013-04-05T09:39:59Z</time>
      </trkpt>
      <trkpt lat="47.28578" lon="4.9833">
        <ele>356.084</ele>
        <time>2013-04-05T09:40:10Z</time>
      </trkpt>
      <trkpt lat="47.28572" lon="4.98325">
        <ele>354.5</ele>
        <time>2013-04-05T09:40:21Z</time>
      </trkpt>
      <trkpt lat="47.28563" lon="4.98323">
        <ele>352.988</ele>
        <time>2013-04-05T09:40:32Z</time>
      </trkpt>
      <trkpt lat="47.28548" lon="4.98323">
        <ele>351.032</ele>
        <time>2013-04-05T09:40:43Z</time>
      </trkpt>
      <trkpt lat="47.28532" lon="4.98335">
        <ele>349.941</ele>
        <time>2013-04-05T09:40:54Z</time>
      </trkpt>
      <trkpt lat="47.28517" lon="4.98347">
        <ele>348.64</ele>
        <time>2013-04-05T09:41:05Z</time>
      </trkpt>
      <trkpt lat="47.28502" lon="4.98357">
        <ele>348.37</ele>
        <time>2013-04-05T09:41:16Z</time>
      </trkpt>
      <trkpt lat="47.28485" lon="4.98368">
        <ele>347.266</ele>
        <time>2013-04-05T09:41:27Z</time>
      </trkpt>
      <trkpt lat="47.28475" lon="4.98385">
        <ele>347.6</ele>
        <time>2013-04-05T09:41:38Z</time>
      </trkpt>
      <trkpt lat="47.28463" lon="4.98397">
        <ele>345.68</ele>
        <time>2013-04-05T09:41:49Z</time>
      </trkpt>
      <trkpt lat="47.28453" lon="4.98405">
        <ele>345.891</ele>
        <time>2013-04-05T09:42:00Z</time>
      </trkpt>
      <trkpt lat="47.28443" lon="4.98403">
        <ele>344.525</ele>
        <time>2013-04-05T09:42:11Z</time>
      </trkpt>
      <trkpt lat="47.28443" lon="4.98403">
        <ele>344.525</ele>
        <time>2013-04-05T09:42:22Z</time>
      </trkpt>
      <trkpt lat="47.28443" lon="4.98403">
        <ele>344.525</ele>
        <time>2013-04-05T09:42:33Z</time>
      </trkpt>
      <trkpt lat="47.28443" lon="4.98403">
        <ele>344.525</ele>
        <time>2013-04-05T09:42:44Z</time>
      </trkpt>
      <trkpt lat="47.28443" lon="4.98403">
        <ele>344.525</ele>
        <time>2013-04-05T09:42:55Z</time>
      </trkpt>
      <trkpt lat="47.28443" lon="4.98403">
        <ele>344.373</ele>
        <time>2013-04-05T09:43:06Z</time>
      </trkpt>
      <trkpt lat="47.28443" lon="4.98403">
        <ele>344.428</ele>
        <time>2013-04-05T09:43:17Z</time>
      </trkpt>
      <trkpt lat="47.28443" lon="4.98403">
        <ele>344.428</ele>
        <time>2013-04-05T09:43:28Z</time>
      </trkpt>
      <trkpt lat="47.28443" lon="4.98403">
        <ele>344.428</ele>
        <time>2013-04-05T09:43:39Z</time>
      </trkpt>
      <trkpt lat="47.28443" lon="4.98403">
        <ele>344.494</ele>
        <time>2013-04-05T09:43:50Z</time>
      </trkpt>
      <trkpt lat="47.28443" lon="4.98403">
        <ele>344.494</ele>
        <time>2013-04-05T09:44:01Z</time>
      </trkpt>
      <trkpt lat="47.28442" lon="4.98403">
        <ele>344.296</ele>
        <time>2013-04-05T09:44:12Z</time>
      </trkpt>
      <trkpt lat="47.28442" lon="4.98403">
        <ele>343.813</ele>
        <time>2013-04-05T09:44:23Z</time>
      </trkpt>
      <trkpt lat="47.28442" lon="4.98403">
        <ele>343.813</ele>
        <time>2013-04-05T09:44:34Z</time>
      </trkpt>
      <trkpt lat="47.28442" lon="4.98403">
        <ele>343.647</ele>
        <time>2013-04-05T09:44:45Z</time>
      </trkpt>
      <trkpt lat="47.28442" lon="4.98405">
        <ele>343.9</ele>
        <time>2013-04-05T09:44:56Z</time>
      </trkpt>
      <trkpt lat="47.2844" lon="4.98405">
        <ele>343.072</ele>
        <time>2013-04-05T09:45:07Z</time>
      </trkpt>
      <trkpt lat="47.2844" lon="4.98405">
        <ele>343.286</ele>
        <time>2013-04-05T09:45:18Z</time>
      </trkpt>
      <trkpt lat="47.28432" lon="4.98405">
        <ele>341.853</ele>
        <time>2013-04-05T09:45:29Z</time>
      </trkpt>
      <trkpt lat="47.28422" lon="4.98405">
        <ele>341.791</ele>
        <time>2013-04-05T09:45:40Z</time>
      </trkpt>
      <trkpt lat="47.28415" lon="4.98403">
        <ele>340.551</ele>
        <time>2013-04-05T09:45:51Z</time>
      </trkpt>
      <trkpt lat="47.28403" lon="4.9841">
        <ele>339.788</ele>
        <time>2013-04-05T09:46:02Z</time>
      </trkpt>
      <trkpt lat="47.28395" lon="4.98425">
        <ele>340.116</ele>
        <time>2013-04-05T09:46:13Z</time>
      </trkpt>
      <trkpt lat="47.28385" lon="4.98445">
        <ele>338.983</ele>
        <time>2013-04-05T09:46:24Z</time>
      </trkpt>
      <trkpt lat="47.28378" lon="4.98462">
        <ele>338.441</ele>
        <time>2013-04-05T09:46:35Z</time>
      </trkpt>
      <trkpt lat="47.28375" lon="4.98483">
        <ele>336.776</ele>
        <time>2013-04-05T09:46:46Z</time>
      </trkpt>
      <trkpt lat="47.28368" lon="4.985">
        <ele>335.847</ele>
        <time>2013-04-05T09:46:57Z</time>
      </trkpt>
      <trkpt lat="47.28363" lon="4.9852">
        <ele>335.257</ele>
        <time>2013-04-05T09:47:08Z</time>
      </trkpt>
      <trkpt lat="47.28358" lon="4.98538">
        <ele>334.559</ele>
        <time>2013-04-05T09:47:19Z</time>
      </trkpt>
      <trkpt lat="47.28353" lon="4.98558">
        <ele>334.404</ele>
        <time>2013-04-05T09:47:30Z</time>
      </trkpt>
      <trkpt lat="47.2835" lon="4.98578">
        <ele>333.931</ele>
        <time>2013-04-05T09:47:41Z</time>
      </trkpt>
      <trkpt lat="47.28348" lon="4.98592">
        <ele>333.735</ele>
        <time>2013-04-05T09:47:52Z</time>
      </trkpt>
      <trkpt lat="47.28348" lon="4.98592">
        <ele>333.73</ele>
        <time>2013-04-05T09:48:03Z</time>
      </trkpt>
      <trkpt lat="47.2835" lon="4.98607">
        <ele>333.225</ele>
        <time>2013-04-05T09:48:14Z</time>
      </trkpt>
      <trkpt lat="47.2835" lon="4.9863">
        <ele>332.534</ele>
        <time>2013-04-05T09:48:25Z</time>
      </trkpt>
      <trkpt lat="47.28348" lon="4.98648">
        <ele>333.712</ele>
        <time>2013-04-05T09:48:36Z</time>
      </trkpt>
      <trkpt lat="47.28357" lon="4.98668">
        <ele>332.774</ele>
        <time>2013-04-05T09:48:47Z</time>
      </trkpt>
      <trkpt lat="47.28355" lon="4.98687">
        <ele>334.348</ele>
        <time>2013-04-05T09:48:58Z</time>
      </trkpt>
      <trkpt lat="47.28348" lon="4.98695">
        <ele>336.541</ele>
        <time>2013-04-05T09:49:09Z</time>
      </trkpt>
      <trkpt lat="47.28345" lon="4.9871">
        <ele>337.483</ele>
        <time>2013-04-05T09:49:20Z</time>
      </trkpt>
      <trkpt lat="47.28342" lon="4.9873">
        <ele>336.762</ele>
        <time>2013-04-05T09:49:31Z</time>
      </trkpt>
      <trkpt lat="47.28338" lon="4.98748">
        <ele>335.896</ele>
        <time>2013-04-05T09:49:42Z</time>
      </trkpt>
      <trkpt lat="47.28338" lon="4.9877">
        <ele>334.162</ele>
        <time>2013-04-05T09:49:53Z</time>
      </trkpt>
      <trkpt lat="47.28338" lon="4.98788">
        <ele>333.635</ele>
        <time>2013-04-05T09:50:04Z</time>
      </trkpt>
      <trkpt lat="47.28338" lon="4.98803">
        <ele>333.345</ele>
        <time>2013-04-05T09:50:15Z</time>
      </trkpt>
      <trkpt lat="47.28342" lon="4.98825">
        <ele>334.525</ele>
        <time>2013-04-05T09:50:26Z</time>
      </trkpt>
      <trkpt lat="47.28347" lon="4.98842">
        <ele>334.952</ele>
        <time>2013-04-05T09:50:37Z</time>
      </trkpt>
      <trkpt lat="47.2835" lon="4.9886">
        <ele>334.899</ele>
        <time>2013-04-05T09:50:48Z</time>
      </trkpt>
      <trkpt lat="47.28358" lon="4.9888">
        <ele>334.26</ele>
        <time>2013-04-05T09:50:59Z</time>
      </trkpt>
      <trkpt lat="47.2836" lon="4.98892">
        <ele>336.291</ele>
        <time>2013-04-05T09:51:10Z</time>
      </trkpt>
      <trkpt lat="47.2837" lon="4.98908">
        <ele>337.666</ele>
        <time>2013-04-05T09:51:21Z</time>
      </trkpt>
      <trkpt lat="47.28377" lon="4.98922">
        <ele>337.723</ele>
        <time>2013-04-05T09:51:32Z</time>
      </trkpt>
      <trkpt lat="47.2838" lon="4.98937">
        <ele>337.453</ele>
        <time>2013-04-05T09:51:43Z</time>
      </trkpt>
      <trkpt lat="47.28387" lon="4.98955">
        <ele>335.824</ele>
        <time>2013-04-05T09:51:54Z</time>
      </trkpt>
      <trkpt lat="47.28392" lon="4.98965">
        <ele>337.157</ele>
        <time>2013-04-05T09:52:05Z</time>
      </trkpt>
      <trkpt lat="47.28397" lon="4.98987">
        <ele>338.019</ele>
        <time>2013-04-05T09:52:16Z</time>
      </trkpt>
      <trkpt lat="47.28397" lon="4.99005">
        <ele>338.216</ele>
        <time>2013-04-05T09:52:27Z</time>
      </trkpt>
      <trkpt lat="47.28398" lon="4.99028">
        <ele>339.479</ele>
        <time>2013-04-05T09:52:38Z</time>
      </trkpt>
      <trkpt lat="47.28402" lon="4.9905">
        <ele>340.029</ele>
        <time>2013-04-05T09:52:49Z</time>
      </trkpt>
      <trkpt lat="47.28408" lon="4.99075">
        <ele>339.521</ele>
        <time>2013-04-05T09:53:00Z</time>
      </trkpt>
      <trkpt lat="47.28412" lon="4.99087">
        <ele>340.209</ele>
        <time>2013-04-05T09:53:11Z</time>
      </trkpt>
      <trkpt lat="47.28415" lon="4.99102">
        <ele>339.823</ele>
        <time>2013-04-05T09:53:22Z</time>
      </trkpt>
      <trkpt lat="47.28417" lon="4.9912">
        <ele>339.719</ele>
        <time>2013-04-05T09:53:33Z</time>
      </trkpt>
      <trkpt lat="47.28422" lon="4.9914">
        <ele>339.179</ele>
        <time>2013-04-05T09:53:44Z</time>
      </trkpt>
      <trkpt lat="47.28427" lon="4.99158">
        <ele>340.584</ele>
        <time>2013-04-05T09:53:55Z</time>
      </trkpt>
      <trkpt lat="47.28433" lon="4.99177">
        <ele>340.76</ele>
        <time>2013-04-05T09:54:06Z</time>
      </trkpt>
      <trkpt lat="47.28433" lon="4.99195">
        <ele>341.541</ele>
        <time>2013-04-05T09:54:17Z</time>
      </trkpt>
      <trkpt lat="47.28438" lon="4.99215">
        <ele>340.625</ele>
        <time>2013-04-05T09:54:28Z</time>
      </trkpt>
      <trkpt lat="47.28445" lon="4.99232">
        <ele>339.962</ele>
        <time>2013-04-05T09:54:39Z</time>
      </trkpt>
      <trkpt lat="47.28453" lon="4.99248">
        <ele>340.162</ele>
        <time>2013-04-05T09:54:50Z</time>
      </trkpt>
      <trkpt lat="47.2846" lon="4.99262">
        <ele>338.75</ele>
        <time>2013-04-05T09:55:01Z</time>
      </trkpt>
      <trkpt lat="47.2847" lon="4.99277">
        <ele>338.559</ele>
        <time>2013-04-05T09:55:12Z</time>
      </trkpt>
      <trkpt lat="47.28478" lon="4.99295">
        <ele>338.353</ele>
        <time>2013-04-05T09:55:23Z</time>
      </trkpt>
      <trkpt lat="47.28485" lon="4.99307">
        <ele>340.041</ele>
        <time>2013-04-05T09:55:34Z</time>
      </trkpt>
      <trkpt lat="47.28493" lon="4.99323">
        <ele>338.688</ele>
        <time>2013-04-05T09:55:45Z</time>
      </trkpt>
      <trkpt lat="47.28503" lon="4.99335">
        <ele>337.914</ele>
        <time>2013-04-05T09:55:56Z</time>
      </trkpt>
      <trkpt lat="47.28512" lon="4.99342">
        <ele>337.731</ele>
        <time>2013-04-05T09:56:07Z</time>
      </trkpt>
      <trkpt lat="47.28513" lon="4.99347">
        <ele>338.121</ele>
        <time>2013-04-05T09:56:18Z</time>
      </trkpt>
      <trkpt lat="47.2852" lon="4.99368">
        <ele>335.496</ele>
        <time>2013-04-05T09:56:29Z</time>
      </trkpt>
      <trkpt lat="47.28527" lon="4.99378">
        <ele>335.341</ele>
        <time>2013-04-05T09:56:40Z</time>
      </trkpt>
      <trkpt lat="47.2853" lon="4.99387">
        <ele>335.955</ele>
        <time>2013-04-05T09:56:51Z</time>
      </trkpt>
      <trkpt lat="47.2853" lon="4.994">
        <ele>336.024</ele>
        <time>2013-04-05T09:57:02Z</time>
      </trkpt>
      <trkpt lat="47.2853" lon="4.99403">
        <ele>336.126</ele>
        <time>2013-04-05T09:57:13Z</time>
      </trkpt>
      <trkpt lat="47.2853" lon="4.9942">
        <ele>332.806</ele>
        <time>2013-04-05T09:57:24Z</time>
      </trkpt>
      <trkpt lat="47.28538" lon="4.99443">
        <ele>329.264</ele>
        <time>2013-04-05T09:57:35Z</time>
      </trkpt>
      <trkpt lat="47.28538" lon="4.99462">
        <ele>326.674</ele>
        <time>2013-04-05T09:57:46Z</time>
      </trkpt>
      <trkpt lat="47.28552" lon="4.99482">
        <ele>324.208</ele>
        <time>2013-04-05T09:57:57Z</time>
      </trkpt>
      <trkpt lat="47.28563" lon="4.99493">
        <ele>322.834</ele>
        <time>2013-04-05T09:58:08Z</time>
      </trkpt>
      <trkpt lat="47.28568" lon="4.99498">
        <ele>323.057</ele>
        <time>2013-04-05T09:58:19Z</time>
      </trkpt>
      <trkpt lat="47.2857" lon="4.995">
        <ele>323.085</ele>
        <time>2013-04-05T09:58:30Z</time>
      </trkpt>
      <trkpt lat="47.2857" lon="4.995">
        <ele>322.823</ele>
        <time>2013-04-05T09:58:41Z</time>
      </trkpt>
      <trkpt lat="47.2857" lon="4.995">
        <ele>322.823</ele>
        <time>2013-04-05T09:58:52Z</time>
      </trkpt>
      <trkpt lat="47.2857" lon="4.995">
        <ele>323.147</ele>
        <time>2013-04-05T09:59:03Z</time>
      </trkpt>
      <trkpt lat="47.2857" lon="4.99502">
        <ele>323.439</ele>
        <time>2013-04-05T09:59:14Z</time>
      </trkpt>
      <trkpt lat="47.2857" lon="4.99502">
        <ele>323.64</ele>
        <time>2013-04-05T09:59:25Z</time>
      </trkpt>
      <trkpt lat="47.2857" lon="4.99502">
        <ele>323.64</ele>
        <time>2013-04-05T09:59:36Z</time>
      </trkpt>
      <trkpt lat="47.2857" lon="4.99502">
        <ele>323.64</ele>
        <time>2013-04-05T09:59:47Z</time>
      </trkpt>
      <trkpt lat="47.2857" lon="4.99502">
        <ele>323.572</ele>
        <time>2013-04-05T09:59:58Z</time>
      </trkpt>
      <trkpt lat="47.2857" lon="4.99502">
        <ele>323.625</ele>
        <time>2013-04-05T10:00:09Z</time>
      </trkpt>
      <trkpt lat="47.2857" lon="4.99502">
        <ele>323.625</ele>
        <time>2013-04-05T10:00:20Z</time>
      </trkpt>
      <trkpt lat="47.28572" lon="4.99502">
        <ele>323.704</ele>
        <time>2013-04-05T10:00:31Z</time>
      </trkpt>
      <trkpt lat="47.28572" lon="4.99502">
        <ele>323.78</ele>
        <time>2013-04-05T10:00:42Z</time>
      </trkpt>
      <trkpt lat="47.28572" lon="4.99503">
        <ele>323.773</ele>
        <time>2013-04-05T10:00:53Z</time>
      </trkpt>
      <trkpt lat="47.28572" lon="4.99503">
        <ele>295.9</ele>
        <time>2013-04-05T10:01:04Z</time>
      </trkpt>
      <trkpt lat="47.28572" lon="4.99503">
        <ele>323.882</ele>
        <time>2013-04-05T10:01:15Z</time>
      </trkpt>
      <trkpt lat="47.28572" lon="4.99503">
        <ele>323.852</ele>
        <time>2013-04-05T10:01:26Z</time>
      </trkpt>
      <trkpt lat="47.2857" lon="4.99515">
        <ele>321.873</ele>
        <time>2013-04-05T10:01:37Z</time>
      </trkpt>
      <trkpt lat="47.28568" lon="4.99533">
        <ele>320.457</ele>
        <time>2013-04-05T10:01:48Z</time>
      </trkpt>
      <trkpt lat="47.28565" lon="4.9955">
        <ele>318.518</ele>
        <time>2013-04-05T10:01:59Z</time>
      </trkpt>
      <trkpt lat="47.28565" lon="4.99568">
        <ele>314.017</ele>
        <time>2013-04-05T10:02:10Z</time>
      </trkpt>
      <trkpt lat="47.28562" lon="4.99587">
        <ele>311.228</ele>
        <time>2013-04-05T10:02:21Z</time>
      </trkpt>
      <trkpt lat="47.2856" lon="4.99602">
        <ele>308.147</ele>
        <time>2013-04-05T10:02:32Z</time>
      </trkpt>
      <trkpt lat="47.28557" lon="4.99615">
        <ele>306.283</ele>
        <time>2013-04-05T10:02:43Z</time>
      </trkpt>
      <trkpt lat="47.28552" lon="4.99632">
        <ele>304.459</ele>
        <time>2013-04-05T10:02:54Z</time>
      </trkpt>
      <trkpt lat="47.28547" lon="4.99648">
        <ele>302.683</ele>
        <time>2013-04-05T10:03:05Z</time>
      </trkpt>
      <trkpt lat="47.2855" lon="4.99662">
        <ele>300.047</ele>
        <time>2013-04-05T10:03:16Z</time>
      </trkpt>
      <trkpt lat="47.28563" lon="4.99677">
        <ele>298.401</ele>
        <time>2013-04-05T10:03:27Z</time>
      </trkpt>
      <trkpt lat="47.28577" lon="4.99685">
        <ele>295.343</ele>
        <time>2013-04-05T10:03:38Z</time>
      </trkpt>
      <trkpt lat="47.2859" lon="4.99692">
        <ele>294.265</ele>
        <time>2013-04-05T10:03:49Z</time>
      </trkpt>
      <trkpt lat="47.28605" lon="4.997">
        <ele>293.685</ele>
        <time>2013-04-05T10:04:00Z</time>
      </trkpt>
      <trkpt lat="47.2862" lon="4.99708">
        <ele>291.739</ele>
        <time>2013-04-05T10:04:11Z</time>
      </trkpt>
      <trkpt lat="47.28633" lon="4.99717">
        <ele>290.419</ele>
        <time>2013-04-05T10:04:22Z</time>
      </trkpt>
      <trkpt lat="47.28647" lon="4.99725">
        <ele>290.279</ele>
        <time>2013-04-05T10:04:33Z</time>
      </trkpt>
      <trkpt lat="47.28662" lon="4.99732">
        <ele>289.968</ele>
        <time>2013-04-05T10:04:44Z</time>
      </trkpt>
      <trkpt lat="47.28675" lon="4.99738">
        <ele>289.597</ele>
        <time>2013-04-05T10:04:55Z</time>
      </trkpt>
      <trkpt lat="47.28688" lon="4.9975">
        <ele>289.787</ele>
        <time>2013-04-05T10:05:06Z</time>
      </trkpt>
      <trkpt lat="47.28702" lon="4.99762">
        <ele>289.713</ele>
        <time>2013-04-05T10:05:17Z</time>
      </trkpt>
      <trkpt lat="47.28717" lon="4.99775">
        <ele>289.889</ele>
        <time>2013-04-05T10:05:28Z</time>
      </trkpt>
      <trkpt lat="47.28728" lon="4.99787">
        <ele>289.827</ele>
        <time>2013-04-05T10:05:39Z</time>
      </trkpt>
      <trkpt lat="47.28742" lon="4.99797">
        <ele>290.26</ele>
        <time>2013-04-05T10:05:50Z</time>
      </trkpt>
      <trkpt lat="47.28753" lon="4.99803">
        <ele>290.43</ele>
        <time>2013-04-05T10:06:01Z</time>
      </trkpt>
      <trkpt lat="47.28768" lon="4.99812">
        <ele>289.479</ele>
        <time>2013-04-05T10:06:12Z</time>
      </trkpt>
      <trkpt lat="47.28783" lon="4.99817">
        <ele>288.591</ele>
        <time>2013-04-05T10:06:23Z</time>
      </trkpt>
      <trkpt lat="47.28798" lon="4.99825">
        <ele>287.294</ele>
        <time>2013-04-05T10:06:34Z</time>
      </trkpt>
      <trkpt lat="47.28813" lon="4.99832">
        <ele>286.361</ele>
        <time>2013-04-05T10:06:45Z</time>
      </trkpt>
      <trkpt lat="47.28828" lon="4.9984">
        <ele>286.033</ele>
        <time>2013-04-05T10:06:56Z</time>
      </trkpt>
      <trkpt lat="47.28842" lon="4.99847">
        <ele>286.07</ele>
        <time>2013-04-05T10:07:07Z</time>
      </trkpt>
      <trkpt lat="47.28857" lon="4.99855">
        <ele>285.424</ele>
        <time>2013-04-05T10:07:18Z</time>
      </trkpt>
      <trkpt lat="47.2887" lon="4.99862">
        <ele>285.622</ele>
        <time>2013-04-05T10:07:29Z</time>
      </trkpt>
      <trkpt lat="47.28885" lon="4.99867">
        <ele>286.346</ele>
        <time>2013-04-05T10:07:40Z</time>
      </trkpt>
      <trkpt lat="47.289" lon="4.99873">
        <ele>286.219</ele>
        <time>2013-04-05T10:07:51Z</time>
      </trkpt>
      <trkpt lat="47.28915" lon="4.99878">
        <ele>286.89</ele>
        <time>2013-04-05T10:08:02Z</time>
      </trkpt>
      <trkpt lat="47.2893" lon="4.99885">
        <ele>287.953</ele>
        <time>2013-04-05T10:08:13Z</time>
      </trkpt>
      <trkpt lat="47.28943" lon="4.99892">
        <ele>286.659</ele>
        <time>2013-04-05T10:08:24Z</time>
      </trkpt>
      <trkpt lat="47.28958" lon="4.99897">
        <ele>285.601</ele>
        <time>2013-04-05T10:08:35Z</time>
      </trkpt>
      <trkpt lat="47.28973" lon="4.99902">
        <ele>285.558</ele>
        <time>2013-04-05T10:08:46Z</time>
      </trkpt>
      <trkpt lat="47.28987" lon="4.99908">
        <ele>285.374</ele>
        <time>2013-04-05T10:08:57Z</time>
      </trkpt>
      <trkpt lat="47.29" lon="4.99917">
        <ele>285.926</ele>
        <time>2013-04-05T10:09:08Z</time>
      </trkpt>
      <trkpt lat="47.29012" lon="4.99927">
        <ele>285.827</ele>
        <time>2013-04-05T10:09:19Z</time>
      </trkpt>
      <trkpt lat="47.29023" lon="4.99938">
        <ele>285.915</ele>
        <time>2013-04-05T10:09:30Z</time>
      </trkpt>
      <trkpt lat="47.29038" lon="4.99947">
        <ele>285.818</ele>
        <time>2013-04-05T10:09:41Z</time>
      </trkpt>
      <trkpt lat="47.2905" lon="4.99955">
        <ele>287.233</ele>
        <time>2013-04-05T10:09:52Z</time>
      </trkpt>
      <trkpt lat="47.29063" lon="4.99963">
        <ele>288.531</ele>
        <time>2013-04-05T10:10:03Z</time>
      </trkpt>
      <trkpt lat="47.29075" lon="4.99973">
        <ele>289.958</ele>
        <time>2013-04-05T10:10:14Z</time>
      </trkpt>
      <trkpt lat="47.29083" lon="4.99988">
        <ele>288.997</ele>
        <time>2013-04-05T10:10:25Z</time>
      </trkpt>
      <trkpt lat="47.2908" lon="5.00007">
        <ele>289.43</ele>
        <time>2013-04-05T10:10:36Z</time>
      </trkpt>
      <trkpt lat="47.29073" lon="5.00023">
        <ele>291.114</ele>
        <time>2013-04-05T10:10:47Z</time>
      </trkpt>
      <trkpt lat="47.29068" lon="5.00047">
        <ele>292.946</ele>
        <time>2013-04-05T10:10:58Z</time>
      </trkpt>
      <trkpt lat="47.29067" lon="5.00067">
        <ele>295.061</ele>
        <time>2013-04-05T10:11:09Z</time>
      </trkpt>
      <trkpt lat="47.29062" lon="5.0009">
        <ele>294.833</ele>
        <time>2013-04-05T10:11:20Z</time>
      </trkpt>
      <trkpt lat="47.29058" lon="5.00108">
        <ele>295.636</ele>
        <time>2013-04-05T10:11:31Z</time>
      </trkpt>
      <trkpt lat="47.29053" lon="5.00128">
        <ele>294.321</ele>
        <time>2013-04-05T10:11:42Z</time>
      </trkpt>
      <trkpt lat="47.29047" lon="5.0015">
        <ele>295.157</ele>
        <time>2013-04-05T10:11:53Z</time>
      </trkpt>
      <trkpt lat="47.29057" lon="5.00158">
        <ele>295.775</ele>
        <time>2013-04-05T10:12:04Z</time>
      </trkpt>
      <trkpt lat="47.29068" lon="5.00167">
        <ele>295.061</ele>
        <time>2013-04-05T10:12:15Z</time>
      </trkpt>
      <trkpt lat="47.29085" lon="5.00177">
        <ele>293.785</ele>
        <time>2013-04-05T10:12:26Z</time>
      </trkpt>
      <trkpt lat="47.29097" lon="5.00178">
        <ele>294.859</ele>
        <time>2013-04-05T10:12:37Z</time>
      </trkpt>
      <trkpt lat="47.29112" lon="5.0019">
        <ele>295.932</ele>
        <time>2013-04-05T10:12:48Z</time>
      </trkpt>
      <trkpt lat="47.29127" lon="5.00197">
        <ele>296.488</ele>
        <time>2013-04-05T10:12:59Z</time>
      </trkpt>
      <trkpt lat="47.29137" lon="5.00202">
        <ele>299.243</ele>
        <time>2013-04-05T10:13:10Z</time>
      </trkpt>
      <trkpt lat="47.29148" lon="5.00203">
        <ele>300.002</ele>
        <time>2013-04-05T10:13:21Z</time>
      </trkpt>
      <trkpt lat="47.2916" lon="5.00198">
        <ele>299.571</ele>
        <time>2013-04-05T10:13:32Z</time>
      </trkpt>
      <trkpt lat="47.2917" lon="5.00195">
        <ele>302.685</ele>
        <time>2013-04-05T10:13:43Z</time>
      </trkpt>
      <trkpt lat="47.29183" lon="5.00207">
        <ele>304.164</ele>
        <time>2013-04-05T10:13:54Z</time>
      </trkpt>
      <trkpt lat="47.29195" lon="5.00218">
        <ele>306.518</ele>
        <time>2013-04-05T10:14:05Z</time>
      </trkpt>
      <trkpt lat="47.292" lon="5.0023">
        <ele>307.902</ele>
        <time>2013-04-05T10:14:16Z</time>
      </trkpt>
      <trkpt lat="47.2921" lon="5.00243">
        <ele>307.665</ele>
        <time>2013-04-05T10:14:27Z</time>
      </trkpt>
      <trkpt lat="47.29207" lon="5.00257">
        <ele>307.222</ele>
        <time>2013-04-05T10:14:38Z</time>
      </trkpt>
      <trkpt lat="47.292" lon="5.00277">
        <ele>302.036</ele>
        <time>2013-04-05T10:14:49Z</time>
      </trkpt>
      <trkpt lat="47.29193" lon="5.00297">
        <ele>299.99</ele>
        <time>2013-04-05T10:15:00Z</time>
      </trkpt>
      <trkpt lat="47.29187" lon="5.00313">
        <ele>299.221</ele>
        <time>2013-04-05T10:15:11Z</time>
      </trkpt>
      <trkpt lat="47.29185" lon="5.00332">
        <ele>297.752</ele>
        <time>2013-04-05T10:15:22Z</time>
      </trkpt>
      <trkpt lat="47.29187" lon="5.00347">
        <ele>294.463</ele>
        <time>2013-04-05T10:15:33Z</time>
      </trkpt>
      <trkpt lat="47.29192" lon="5.00353">
        <ele>293.659</ele>
        <time>2013-04-05T10:15:44Z</time>
      </trkpt>
      <trkpt lat="47.292" lon="5.00367">
        <ele>292.353</ele>
        <time>2013-04-05T10:15:55Z</time>
      </trkpt>
      <trkpt lat="47.2921" lon="5.0038">
        <ele>290.027</ele>
        <time>2013-04-05T10:16:06Z</time>
      </trkpt>
      <trkpt lat="47.29212" lon="5.00402">
        <ele>290.332</ele>
        <time>2013-04-05T10:16:17Z</time>
      </trkpt>
      <trkpt lat="47.29205" lon="5.00423">
        <ele>289.289</ele>
        <time>2013-04-05T10:16:28Z</time>
      </trkpt>
      <trkpt lat="47.29212" lon="5.00437">
        <ele>292.984</ele>
        <time>2013-04-05T10:16:39Z</time>
      </trkpt>
      <trkpt lat="47.29225" lon="5.0045">
        <ele>294.002</ele>
        <time>2013-04-05T10:16:50Z</time>
      </trkpt>
      <trkpt lat="47.29235" lon="5.00468">
        <ele>293.768</ele>
        <time>2013-04-05T10:17:01Z</time>
      </trkpt>
      <trkpt lat="47.29228" lon="5.00487">
        <ele>291.577</ele>
        <time>2013-04-05T10:17:12Z</time>
      </trkpt>
      <trkpt lat="47.29232" lon="5.00505">
        <ele>290.002</ele>
        <time>2013-04-05T10:17:23Z</time>
      </trkpt>
      <trkpt lat="47.29233" lon="5.00523">
        <ele>289.427</ele>
        <time>2013-04-05T10:17:34Z</time>
      </trkpt>
      <trkpt lat="47.29235" lon="5.00542">
        <ele>291.047</ele>
        <time>2013-04-05T10:17:45Z</time>
      </trkpt>
      <trkpt lat="47.29237" lon="5.00563">
        <ele>289.873</ele>
        <time>2013-04-05T10:17:56Z</time>
      </trkpt>
      <trkpt lat="47.29242" lon="5.00585">
        <ele>286.303</ele>
        <time>2013-04-05T10:18:07Z</time>
      </trkpt>
      <trkpt lat="47.29242" lon="5.00593">
        <ele>285.854</ele>
        <time>2013-04-05T10:18:18Z</time>
      </trkpt>
    </trkseg>
  </trk>
</gpx>